<?xml version="1.0" encoding="UTF-8" standalone="no" ?>
<gpx xmlns="http://www.topografix.com/GPX/1/1" xmlns:xsi="http://www.w3.org/2001/XMLSchema-instance" xsi:schemaLocation="http://www.topografix.com/GPX/1/1 http://www.topografix.com/GPX/1/1/gpx.xsd" version="1.1" creator="VisuGPX - https://www.visugpx.com">
  <metadata>
    <name>parcours 14</name>
    <desc><![CDATA[entraînement]]></desc>
  </metadata>
  <trk>
    <name><![CDATA[ACTIVE LOG143141]]></name>
    <trkseg>
      <trkpt lat="48.49661" lon="-4.50958">
        <ele>41.247</ele>
        <time>2010-08-24T12:31:41Z</time>
      </trkpt>
      <trkpt lat="48.49616" lon="-4.50983">
        <ele>44.277</ele>
        <time>2010-08-24T12:31:54Z</time>
      </trkpt>
      <trkpt lat="48.49601" lon="-4.50989">
        <ele>47.326</ele>
        <time>2010-08-24T12:31:58Z</time>
      </trkpt>
      <trkpt lat="48.4959" lon="-4.50994">
        <ele>50.438</ele>
        <time>2010-08-24T12:32:01Z</time>
      </trkpt>
      <trkpt lat="48.49579" lon="-4.50997">
        <ele>53.848</ele>
        <time>2010-08-24T12:32:04Z</time>
      </trkpt>
      <trkpt lat="48.49564" lon="-4.50998">
        <ele>56.944</ele>
        <time>2010-08-24T12:32:08Z</time>
      </trkpt>
      <trkpt lat="48.49541" lon="-4.50997">
        <ele>59.606</ele>
        <time>2010-08-24T12:32:14Z</time>
      </trkpt>
      <trkpt lat="48.49513" lon="-4.50992">
        <ele>61.495</ele>
        <time>2010-08-24T12:32:20Z</time>
      </trkpt>
      <trkpt lat="48.49489" lon="-4.50988">
        <ele>63.252</ele>
        <time>2010-08-24T12:32:25Z</time>
      </trkpt>
      <trkpt lat="48.49484" lon="-4.50987">
        <ele>63.375</ele>
        <time>2010-08-24T12:32:26Z</time>
      </trkpt>
      <trkpt lat="48.49455" lon="-4.50985">
        <ele>63.873</ele>
        <time>2010-08-24T12:32:32Z</time>
      </trkpt>
      <trkpt lat="48.49406" lon="-4.51003">
        <ele>67.601</ele>
        <time>2010-08-24T12:32:42Z</time>
      </trkpt>
      <trkpt lat="48.49392" lon="-4.51009">
        <ele>68.864</ele>
        <time>2010-08-24T12:32:45Z</time>
      </trkpt>
      <trkpt lat="48.49334" lon="-4.51035">
        <ele>71.942</ele>
        <time>2010-08-24T12:32:58Z</time>
      </trkpt>
      <trkpt lat="48.49225" lon="-4.51084">
        <ele>74.114</ele>
        <time>2010-08-24T12:33:22Z</time>
      </trkpt>
      <trkpt lat="48.49116" lon="-4.51135">
        <ele>72.524</ele>
        <time>2010-08-24T12:33:43Z</time>
      </trkpt>
      <trkpt lat="48.49015" lon="-4.51217">
        <ele>72.959</ele>
        <time>2010-08-24T12:34:02Z</time>
      </trkpt>
      <trkpt lat="48.48893" lon="-4.51291">
        <ele>74.09</ele>
        <time>2010-08-24T12:34:26Z</time>
      </trkpt>
      <trkpt lat="48.48766" lon="-4.51367">
        <ele>75.633</ele>
        <time>2010-08-24T12:34:54Z</time>
      </trkpt>
      <trkpt lat="48.48713" lon="-4.51426">
        <ele>78.663</ele>
        <time>2010-08-24T12:35:09Z</time>
      </trkpt>
      <trkpt lat="48.48662" lon="-4.51541">
        <ele>77.167</ele>
        <time>2010-08-24T12:35:28Z</time>
      </trkpt>
      <trkpt lat="48.48579" lon="-4.51721">
        <ele>76.811</ele>
        <time>2010-08-24T12:35:56Z</time>
      </trkpt>
      <trkpt lat="48.48519" lon="-4.51835">
        <ele>76.583</ele>
        <time>2010-08-24T12:36:14Z</time>
      </trkpt>
      <trkpt lat="48.4849" lon="-4.51883">
        <ele>76.945</ele>
        <time>2010-08-24T12:36:22Z</time>
      </trkpt>
      <trkpt lat="48.48406" lon="-4.51953">
        <ele>76.892</ele>
        <time>2010-08-24T12:36:41Z</time>
      </trkpt>
      <trkpt lat="48.48363" lon="-4.51984">
        <ele>76.838</ele>
        <time>2010-08-24T12:36:51Z</time>
      </trkpt>
      <trkpt lat="48.48325" lon="-4.52009">
        <ele>76.32</ele>
        <time>2010-08-24T12:36:59Z</time>
      </trkpt>
      <trkpt lat="48.48238" lon="-4.52054">
        <ele>73.892</ele>
        <time>2010-08-24T12:37:16Z</time>
      </trkpt>
      <trkpt lat="48.48206" lon="-4.52087">
        <ele>73.884</ele>
        <time>2010-08-24T12:37:23Z</time>
      </trkpt>
      <trkpt lat="48.48149" lon="-4.52213">
        <ele>72.415</ele>
        <time>2010-08-24T12:37:40Z</time>
      </trkpt>
      <trkpt lat="48.48126" lon="-4.52242">
        <ele>74.274</ele>
        <time>2010-08-24T12:37:46Z</time>
      </trkpt>
      <trkpt lat="48.48064" lon="-4.52263">
        <ele>73.343</ele>
        <time>2010-08-24T12:37:58Z</time>
      </trkpt>
      <trkpt lat="48.48036" lon="-4.5227">
        <ele>73.023</ele>
        <time>2010-08-24T12:38:03Z</time>
      </trkpt>
      <trkpt lat="48.47995" lon="-4.52295">
        <ele>73.073</ele>
        <time>2010-08-24T12:38:11Z</time>
      </trkpt>
      <trkpt lat="48.47943" lon="-4.52395">
        <ele>74.497</ele>
        <time>2010-08-24T12:38:27Z</time>
      </trkpt>
      <trkpt lat="48.4793" lon="-4.52424">
        <ele>74.628</ele>
        <time>2010-08-24T12:38:32Z</time>
      </trkpt>
      <trkpt lat="48.47889" lon="-4.52515">
        <ele>77.897</ele>
        <time>2010-08-24T12:38:49Z</time>
      </trkpt>
      <trkpt lat="48.47887" lon="-4.52519">
        <ele>78.089</ele>
        <time>2010-08-24T12:38:50Z</time>
      </trkpt>
      <trkpt lat="48.47846" lon="-4.52598">
        <ele>78.453</ele>
        <time>2010-08-24T12:39:05Z</time>
      </trkpt>
      <trkpt lat="48.47827" lon="-4.52633">
        <ele>78.129</ele>
        <time>2010-08-24T12:39:11Z</time>
      </trkpt>
      <trkpt lat="48.47807" lon="-4.5267">
        <ele>77.692</ele>
        <time>2010-08-24T12:39:17Z</time>
      </trkpt>
      <trkpt lat="48.47798" lon="-4.52686">
        <ele>77.984</ele>
        <time>2010-08-24T12:39:20Z</time>
      </trkpt>
      <trkpt lat="48.47771" lon="-4.52736">
        <ele>76.922</ele>
        <time>2010-08-24T12:39:30Z</time>
      </trkpt>
      <trkpt lat="48.47769" lon="-4.5274">
        <ele>76.865</ele>
        <time>2010-08-24T12:39:32Z</time>
      </trkpt>
      <trkpt lat="48.47755" lon="-4.52779">
        <ele>78.018</ele>
        <time>2010-08-24T12:39:38Z</time>
      </trkpt>
      <trkpt lat="48.47732" lon="-4.52829">
        <ele>74.707</ele>
        <time>2010-08-24T12:39:48Z</time>
      </trkpt>
      <trkpt lat="48.47716" lon="-4.52863">
        <ele>75.21</ele>
        <time>2010-08-24T12:39:53Z</time>
      </trkpt>
      <trkpt lat="48.47683" lon="-4.5298">
        <ele>75.175</ele>
        <time>2010-08-24T12:40:12Z</time>
      </trkpt>
      <trkpt lat="48.47645" lon="-4.53107">
        <ele>76.304</ele>
        <time>2010-08-24T12:40:30Z</time>
      </trkpt>
      <trkpt lat="48.47605" lon="-4.53215">
        <ele>79.993</ele>
        <time>2010-08-24T12:40:49Z</time>
      </trkpt>
      <trkpt lat="48.47548" lon="-4.53324">
        <ele>81.978</ele>
        <time>2010-08-24T12:41:09Z</time>
      </trkpt>
      <trkpt lat="48.47495" lon="-4.53459">
        <ele>80.74</ele>
        <time>2010-08-24T12:41:30Z</time>
      </trkpt>
      <trkpt lat="48.47434" lon="-4.53599">
        <ele>80.017</ele>
        <time>2010-08-24T12:41:50Z</time>
      </trkpt>
      <trkpt lat="48.47438" lon="-4.53651">
        <ele>80.675</ele>
        <time>2010-08-24T12:41:56Z</time>
      </trkpt>
      <trkpt lat="48.47445" lon="-4.5373">
        <ele>79.921</ele>
        <time>2010-08-24T12:42:06Z</time>
      </trkpt>
      <trkpt lat="48.47442" lon="-4.5376">
        <ele>80.002</ele>
        <time>2010-08-24T12:42:10Z</time>
      </trkpt>
      <trkpt lat="48.47375" lon="-4.53969">
        <ele>80.14</ele>
        <time>2010-08-24T12:42:38Z</time>
      </trkpt>
      <trkpt lat="48.47333" lon="-4.54057">
        <ele>81.366</ele>
        <time>2010-08-24T12:42:52Z</time>
      </trkpt>
      <trkpt lat="48.47322" lon="-4.54078">
        <ele>81.882</ele>
        <time>2010-08-24T12:42:56Z</time>
      </trkpt>
      <trkpt lat="48.47302" lon="-4.5412">
        <ele>82.62</ele>
        <time>2010-08-24T12:43:03Z</time>
      </trkpt>
      <trkpt lat="48.47293" lon="-4.54138">
        <ele>82.409</ele>
        <time>2010-08-24T12:43:06Z</time>
      </trkpt>
      <trkpt lat="48.47288" lon="-4.54157">
        <ele>83.34</ele>
        <time>2010-08-24T12:43:09Z</time>
      </trkpt>
      <trkpt lat="48.47272" lon="-4.54301">
        <ele>81.699</ele>
        <time>2010-08-24T12:43:29Z</time>
      </trkpt>
      <trkpt lat="48.47248" lon="-4.54398">
        <ele>84.699</ele>
        <time>2010-08-24T12:43:44Z</time>
      </trkpt>
      <trkpt lat="48.47192" lon="-4.54503">
        <ele>86.741</ele>
        <time>2010-08-24T12:44:04Z</time>
      </trkpt>
      <trkpt lat="48.47135" lon="-4.54588">
        <ele>84.808</ele>
        <time>2010-08-24T12:44:20Z</time>
      </trkpt>
      <trkpt lat="48.47107" lon="-4.54695">
        <ele>84.832</ele>
        <time>2010-08-24T12:44:35Z</time>
      </trkpt>
      <trkpt lat="48.47092" lon="-4.54832">
        <ele>83.978</ele>
        <time>2010-08-24T12:44:54Z</time>
      </trkpt>
      <trkpt lat="48.47092" lon="-4.54893">
        <ele>83.744</ele>
        <time>2010-08-24T12:45:02Z</time>
      </trkpt>
      <trkpt lat="48.47093" lon="-4.55075">
        <ele>84.87</ele>
        <time>2010-08-24T12:45:26Z</time>
      </trkpt>
      <trkpt lat="48.47075" lon="-4.55193">
        <ele>81.192</ele>
        <time>2010-08-24T12:45:40Z</time>
      </trkpt>
      <trkpt lat="48.47074" lon="-4.55203">
        <ele>81.229</ele>
        <time>2010-08-24T12:45:41Z</time>
      </trkpt>
      <trkpt lat="48.47064" lon="-4.5527">
        <ele>77.74</ele>
        <time>2010-08-24T12:45:48Z</time>
      </trkpt>
      <trkpt lat="48.47062" lon="-4.55279">
        <ele>77.867</ele>
        <time>2010-08-24T12:45:49Z</time>
      </trkpt>
      <trkpt lat="48.47059" lon="-4.55299">
        <ele>79.257</ele>
        <time>2010-08-24T12:45:51Z</time>
      </trkpt>
      <trkpt lat="48.47016" lon="-4.55541">
        <ele>79.804</ele>
        <time>2010-08-24T12:46:16Z</time>
      </trkpt>
      <trkpt lat="48.47005" lon="-4.55677">
        <ele>78.208</ele>
        <time>2010-08-24T12:46:32Z</time>
      </trkpt>
      <trkpt lat="48.47002" lon="-4.55766">
        <ele>74.91</ele>
        <time>2010-08-24T12:46:40Z</time>
      </trkpt>
      <trkpt lat="48.46997" lon="-4.55807">
        <ele>71.02</ele>
        <time>2010-08-24T12:46:43Z</time>
      </trkpt>
      <trkpt lat="48.46988" lon="-4.55846">
        <ele>68.546</ele>
        <time>2010-08-24T12:46:46Z</time>
      </trkpt>
      <trkpt lat="48.46957" lon="-4.55964">
        <ele>69.921</ele>
        <time>2010-08-24T12:46:56Z</time>
      </trkpt>
      <trkpt lat="48.46919" lon="-4.56102">
        <ele>72.548</ele>
        <time>2010-08-24T12:47:12Z</time>
      </trkpt>
      <trkpt lat="48.46888" lon="-4.56223">
        <ele>75.955</ele>
        <time>2010-08-24T12:47:27Z</time>
      </trkpt>
      <trkpt lat="48.46864" lon="-4.56283">
        <ele>78.413</ele>
        <time>2010-08-24T12:47:34Z</time>
      </trkpt>
      <trkpt lat="48.46831" lon="-4.56334">
        <ele>79.695</ele>
        <time>2010-08-24T12:47:41Z</time>
      </trkpt>
      <trkpt lat="48.46776" lon="-4.5641">
        <ele>82.323</ele>
        <time>2010-08-24T12:47:56Z</time>
      </trkpt>
      <trkpt lat="48.46768" lon="-4.56426">
        <ele>82.279</ele>
        <time>2010-08-24T12:47:59Z</time>
      </trkpt>
      <trkpt lat="48.46759" lon="-4.5644">
        <ele>83.211</ele>
        <time>2010-08-24T12:48:02Z</time>
      </trkpt>
      <trkpt lat="48.46717" lon="-4.56484">
        <ele>83.206</ele>
        <time>2010-08-24T12:48:16Z</time>
      </trkpt>
      <trkpt lat="48.46711" lon="-4.56498">
        <ele>82.669</ele>
        <time>2010-08-24T12:48:19Z</time>
      </trkpt>
      <trkpt lat="48.46709" lon="-4.56503">
        <ele>83.018</ele>
        <time>2010-08-24T12:48:22Z</time>
      </trkpt>
      <trkpt lat="48.46697" lon="-4.56562">
        <ele>82.956</ele>
        <time>2010-08-24T12:48:29Z</time>
      </trkpt>
      <trkpt lat="48.46691" lon="-4.56573">
        <ele>83.724</ele>
        <time>2010-08-24T12:48:31Z</time>
      </trkpt>
      <trkpt lat="48.46653" lon="-4.56633">
        <ele>84.454</ele>
        <time>2010-08-24T12:48:42Z</time>
      </trkpt>
      <trkpt lat="48.46604" lon="-4.56748">
        <ele>85.729</ele>
        <time>2010-08-24T12:49:01Z</time>
      </trkpt>
      <trkpt lat="48.46562" lon="-4.56856">
        <ele>86.491</ele>
        <time>2010-08-24T12:49:20Z</time>
      </trkpt>
      <trkpt lat="48.46523" lon="-4.56936">
        <ele>87.222</ele>
        <time>2010-08-24T12:49:37Z</time>
      </trkpt>
      <trkpt lat="48.46522" lon="-4.56941">
        <ele>87.41</ele>
        <time>2010-08-24T12:49:38Z</time>
      </trkpt>
      <trkpt lat="48.46502" lon="-4.57073">
        <ele>88.742</ele>
        <time>2010-08-24T12:49:57Z</time>
      </trkpt>
      <trkpt lat="48.46491" lon="-4.5714">
        <ele>86.98</ele>
        <time>2010-08-24T12:50:06Z</time>
      </trkpt>
      <trkpt lat="48.46482" lon="-4.57186">
        <ele>87.217</ele>
        <time>2010-08-24T12:50:12Z</time>
      </trkpt>
      <trkpt lat="48.4647" lon="-4.57213">
        <ele>86.268</ele>
        <time>2010-08-24T12:50:16Z</time>
      </trkpt>
      <trkpt lat="48.46387" lon="-4.5735">
        <ele>84.495</ele>
        <time>2010-08-24T12:50:37Z</time>
      </trkpt>
      <trkpt lat="48.46329" lon="-4.5749">
        <ele>84.495</ele>
        <time>2010-08-24T12:50:55Z</time>
      </trkpt>
      <trkpt lat="48.46303" lon="-4.57549">
        <ele>83.593</ele>
        <time>2010-08-24T12:51:03Z</time>
      </trkpt>
      <trkpt lat="48.46297" lon="-4.57565">
        <ele>84.411</ele>
        <time>2010-08-24T12:51:05Z</time>
      </trkpt>
      <trkpt lat="48.4625" lon="-4.57675">
        <ele>87.449</ele>
        <time>2010-08-24T12:51:20Z</time>
      </trkpt>
      <trkpt lat="48.46192" lon="-4.5782">
        <ele>86.735</ele>
        <time>2010-08-24T12:51:40Z</time>
      </trkpt>
      <trkpt lat="48.46184" lon="-4.57879">
        <ele>85.93</ele>
        <time>2010-08-24T12:51:47Z</time>
      </trkpt>
      <trkpt lat="48.46151" lon="-4.58086">
        <ele>87.62</ele>
        <time>2010-08-24T12:52:13Z</time>
      </trkpt>
      <trkpt lat="48.4615" lon="-4.58122">
        <ele>86.653</ele>
        <time>2010-08-24T12:52:18Z</time>
      </trkpt>
      <trkpt lat="48.46149" lon="-4.58142">
        <ele>87.793</ele>
        <time>2010-08-24T12:52:21Z</time>
      </trkpt>
      <trkpt lat="48.46147" lon="-4.58211">
        <ele>88.672</ele>
        <time>2010-08-24T12:52:31Z</time>
      </trkpt>
      <trkpt lat="48.46147" lon="-4.58225">
        <ele>89.369</ele>
        <time>2010-08-24T12:52:33Z</time>
      </trkpt>
      <trkpt lat="48.46168" lon="-4.58265">
        <ele>89.73</ele>
        <time>2010-08-24T12:52:39Z</time>
      </trkpt>
      <trkpt lat="48.46258" lon="-4.58384">
        <ele>86.242</ele>
        <time>2010-08-24T12:52:59Z</time>
      </trkpt>
      <trkpt lat="48.46325" lon="-4.58481">
        <ele>86.469</ele>
        <time>2010-08-24T12:53:14Z</time>
      </trkpt>
      <trkpt lat="48.4634" lon="-4.58507">
        <ele>87.367</ele>
        <time>2010-08-24T12:53:18Z</time>
      </trkpt>
      <trkpt lat="48.46426" lon="-4.58651">
        <ele>85.62</ele>
        <time>2010-08-24T12:53:42Z</time>
      </trkpt>
      <trkpt lat="48.46521" lon="-4.58809">
        <ele>85.703</ele>
        <time>2010-08-24T12:54:08Z</time>
      </trkpt>
      <trkpt lat="48.46618" lon="-4.58971">
        <ele>84.624</ele>
        <time>2010-08-24T12:54:34Z</time>
      </trkpt>
      <trkpt lat="48.46662" lon="-4.59044">
        <ele>86.084</ele>
        <time>2010-08-24T12:54:50Z</time>
      </trkpt>
      <trkpt lat="48.4676" lon="-4.59216">
        <ele>84.986</ele>
        <time>2010-08-24T12:55:17Z</time>
      </trkpt>
      <trkpt lat="48.46848" lon="-4.59399">
        <ele>84.001</ele>
        <time>2010-08-24T12:55:44Z</time>
      </trkpt>
      <trkpt lat="48.46898" lon="-4.59512">
        <ele>84.783</ele>
        <time>2010-08-24T12:56:01Z</time>
      </trkpt>
      <trkpt lat="48.46954" lon="-4.59636">
        <ele>85.817</ele>
        <time>2010-08-24T12:56:21Z</time>
      </trkpt>
      <trkpt lat="48.46994" lon="-4.59747">
        <ele>86.138</ele>
        <time>2010-08-24T12:56:39Z</time>
      </trkpt>
      <trkpt lat="48.47007" lon="-4.59798">
        <ele>86.477</ele>
        <time>2010-08-24T12:56:47Z</time>
      </trkpt>
      <trkpt lat="48.47014" lon="-4.59868">
        <ele>87.426</ele>
        <time>2010-08-24T12:56:58Z</time>
      </trkpt>
      <trkpt lat="48.47017" lon="-4.59904">
        <ele>88.304</ele>
        <time>2010-08-24T12:57:02Z</time>
      </trkpt>
      <trkpt lat="48.47032" lon="-4.6005">
        <ele>87.97</ele>
        <time>2010-08-24T12:57:23Z</time>
      </trkpt>
      <trkpt lat="48.47049" lon="-4.60169">
        <ele>90.104</ele>
        <time>2010-08-24T12:57:41Z</time>
      </trkpt>
      <trkpt lat="48.47053" lon="-4.60189">
        <ele>88.853</ele>
        <time>2010-08-24T12:57:44Z</time>
      </trkpt>
      <trkpt lat="48.47063" lon="-4.60272">
        <ele>87.96</ele>
        <time>2010-08-24T12:57:56Z</time>
      </trkpt>
      <trkpt lat="48.47065" lon="-4.60332">
        <ele>91.911</ele>
        <time>2010-08-24T12:58:06Z</time>
      </trkpt>
      <trkpt lat="48.47065" lon="-4.60446">
        <ele>92.492</ele>
        <time>2010-08-24T12:58:23Z</time>
      </trkpt>
      <trkpt lat="48.47095" lon="-4.60593">
        <ele>90.046</ele>
        <time>2010-08-24T12:58:42Z</time>
      </trkpt>
      <trkpt lat="48.47156" lon="-4.60741">
        <ele>86.57</ele>
        <time>2010-08-24T12:59:01Z</time>
      </trkpt>
      <trkpt lat="48.47206" lon="-4.60904">
        <ele>86.817</ele>
        <time>2010-08-24T12:59:21Z</time>
      </trkpt>
      <trkpt lat="48.47211" lon="-4.6094">
        <ele>88.577</ele>
        <time>2010-08-24T12:59:26Z</time>
      </trkpt>
      <trkpt lat="48.47215" lon="-4.60966">
        <ele>88.744</ele>
        <time>2010-08-24T12:59:30Z</time>
      </trkpt>
      <trkpt lat="48.47232" lon="-4.61074">
        <ele>91.148</ele>
        <time>2010-08-24T12:59:49Z</time>
      </trkpt>
      <trkpt lat="48.47247" lon="-4.61229">
        <ele>91.662</ele>
        <time>2010-08-24T13:00:08Z</time>
      </trkpt>
      <trkpt lat="48.47264" lon="-4.61351">
        <ele>88.308</ele>
        <time>2010-08-24T13:00:23Z</time>
      </trkpt>
      <trkpt lat="48.47255" lon="-4.61464">
        <ele>88.151</ele>
        <time>2010-08-24T13:00:37Z</time>
      </trkpt>
      <trkpt lat="48.47208" lon="-4.61557">
        <ele>87.239</ele>
        <time>2010-08-24T13:00:51Z</time>
      </trkpt>
      <trkpt lat="48.47133" lon="-4.61671">
        <ele>90.277</ele>
        <time>2010-08-24T13:01:12Z</time>
      </trkpt>
      <trkpt lat="48.47102" lon="-4.61734">
        <ele>91.177</ele>
        <time>2010-08-24T13:01:23Z</time>
      </trkpt>
      <trkpt lat="48.47089" lon="-4.61789">
        <ele>91.815</ele>
        <time>2010-08-24T13:01:31Z</time>
      </trkpt>
      <trkpt lat="48.47094" lon="-4.61926">
        <ele>92.86</ele>
        <time>2010-08-24T13:01:50Z</time>
      </trkpt>
      <trkpt lat="48.47101" lon="-4.62065">
        <ele>94.735</ele>
        <time>2010-08-24T13:02:10Z</time>
      </trkpt>
      <trkpt lat="48.47115" lon="-4.62231">
        <ele>93.839</ele>
        <time>2010-08-24T13:02:32Z</time>
      </trkpt>
      <trkpt lat="48.47134" lon="-4.6237">
        <ele>94.54</ele>
        <time>2010-08-24T13:02:52Z</time>
      </trkpt>
      <trkpt lat="48.47153" lon="-4.62491">
        <ele>96.746</ele>
        <time>2010-08-24T13:03:09Z</time>
      </trkpt>
      <trkpt lat="48.47168" lon="-4.62583">
        <ele>97.376</ele>
        <time>2010-08-24T13:03:24Z</time>
      </trkpt>
      <trkpt lat="48.47172" lon="-4.62649">
        <ele>95.432</ele>
        <time>2010-08-24T13:03:34Z</time>
      </trkpt>
      <trkpt lat="48.47167" lon="-4.62684">
        <ele>96.091</ele>
        <time>2010-08-24T13:03:39Z</time>
      </trkpt>
      <trkpt lat="48.4716" lon="-4.62701">
        <ele>96.435</ele>
        <time>2010-08-24T13:03:42Z</time>
      </trkpt>
      <trkpt lat="48.47113" lon="-4.62831">
        <ele>97.454</ele>
        <time>2010-08-24T13:04:02Z</time>
      </trkpt>
      <trkpt lat="48.47105" lon="-4.62999">
        <ele>95.678</ele>
        <time>2010-08-24T13:04:23Z</time>
      </trkpt>
      <trkpt lat="48.47096" lon="-4.632">
        <ele>92.574</ele>
        <time>2010-08-24T13:04:46Z</time>
      </trkpt>
      <trkpt lat="48.47091" lon="-4.63312">
        <ele>92.022</ele>
        <time>2010-08-24T13:04:58Z</time>
      </trkpt>
      <trkpt lat="48.47104" lon="-4.63447">
        <ele>90.417</ele>
        <time>2010-08-24T13:05:13Z</time>
      </trkpt>
      <trkpt lat="48.47113" lon="-4.63548">
        <ele>91.656</ele>
        <time>2010-08-24T13:05:25Z</time>
      </trkpt>
      <trkpt lat="48.47125" lon="-4.63614">
        <ele>91.649</ele>
        <time>2010-08-24T13:05:33Z</time>
      </trkpt>
      <trkpt lat="48.47132" lon="-4.63629">
        <ele>90.441</ele>
        <time>2010-08-24T13:05:35Z</time>
      </trkpt>
      <trkpt lat="48.47142" lon="-4.63649">
        <ele>90.163</ele>
        <time>2010-08-24T13:05:38Z</time>
      </trkpt>
      <trkpt lat="48.47154" lon="-4.63663">
        <ele>90.986</ele>
        <time>2010-08-24T13:05:41Z</time>
      </trkpt>
      <trkpt lat="48.47218" lon="-4.63691">
        <ele>87.632</ele>
        <time>2010-08-24T13:05:52Z</time>
      </trkpt>
      <trkpt lat="48.4729" lon="-4.63751">
        <ele>86.46</ele>
        <time>2010-08-24T13:06:06Z</time>
      </trkpt>
      <trkpt lat="48.47311" lon="-4.63773">
        <ele>86.79</ele>
        <time>2010-08-24T13:06:11Z</time>
      </trkpt>
      <trkpt lat="48.47319" lon="-4.63798">
        <ele>87.486</ele>
        <time>2010-08-24T13:06:15Z</time>
      </trkpt>
      <trkpt lat="48.47323" lon="-4.63909">
        <ele>89.181</ele>
        <time>2010-08-24T13:06:31Z</time>
      </trkpt>
      <trkpt lat="48.47323" lon="-4.63948">
        <ele>89.819</ele>
        <time>2010-08-24T13:06:37Z</time>
      </trkpt>
      <trkpt lat="48.47366" lon="-4.6399">
        <ele>87.385</ele>
        <time>2010-08-24T13:06:47Z</time>
      </trkpt>
      <trkpt lat="48.47395" lon="-4.64016">
        <ele>86.723</ele>
        <time>2010-08-24T13:06:53Z</time>
      </trkpt>
      <trkpt lat="48.47478" lon="-4.64039">
        <ele>86.882</ele>
        <time>2010-08-24T13:07:08Z</time>
      </trkpt>
      <trkpt lat="48.47605" lon="-4.64017">
        <ele>84.808</ele>
        <time>2010-08-24T13:07:28Z</time>
      </trkpt>
      <trkpt lat="48.47744" lon="-4.64018">
        <ele>83.284</ele>
        <time>2010-08-24T13:07:50Z</time>
      </trkpt>
      <trkpt lat="48.47809" lon="-4.64036">
        <ele>82.748</ele>
        <time>2010-08-24T13:08:01Z</time>
      </trkpt>
      <trkpt lat="48.47911" lon="-4.64117">
        <ele>84.793</ele>
        <time>2010-08-24T13:08:21Z</time>
      </trkpt>
      <trkpt lat="48.47966" lon="-4.64151">
        <ele>81.209</ele>
        <time>2010-08-24T13:08:33Z</time>
      </trkpt>
      <trkpt lat="48.48101" lon="-4.64226">
        <ele>77.701</ele>
        <time>2010-08-24T13:08:51Z</time>
      </trkpt>
      <trkpt lat="48.48121" lon="-4.64237">
        <ele>78.971</ele>
        <time>2010-08-24T13:08:54Z</time>
      </trkpt>
      <trkpt lat="48.4825" lon="-4.64311">
        <ele>79.019</ele>
        <time>2010-08-24T13:09:14Z</time>
      </trkpt>
      <trkpt lat="48.48361" lon="-4.64375">
        <ele>82.165</ele>
        <time>2010-08-24T13:09:32Z</time>
      </trkpt>
      <trkpt lat="48.48522" lon="-4.64463">
        <ele>84.527</ele>
        <time>2010-08-24T13:10:00Z</time>
      </trkpt>
      <trkpt lat="48.48614" lon="-4.64482">
        <ele>81.465</ele>
        <time>2010-08-24T13:10:14Z</time>
      </trkpt>
      <trkpt lat="48.48803" lon="-4.64517">
        <ele>79.841</ele>
        <time>2010-08-24T13:10:41Z</time>
      </trkpt>
      <trkpt lat="48.48869" lon="-4.64529">
        <ele>79.277</ele>
        <time>2010-08-24T13:10:50Z</time>
      </trkpt>
      <trkpt lat="48.49056" lon="-4.64569">
        <ele>80.139</ele>
        <time>2010-08-24T13:11:17Z</time>
      </trkpt>
      <trkpt lat="48.49115" lon="-4.64582">
        <ele>78.934</ele>
        <time>2010-08-24T13:11:26Z</time>
      </trkpt>
      <trkpt lat="48.49189" lon="-4.64607">
        <ele>79.658</ele>
        <time>2010-08-24T13:11:37Z</time>
      </trkpt>
      <trkpt lat="48.49296" lon="-4.64646">
        <ele>76.589</ele>
        <time>2010-08-24T13:11:52Z</time>
      </trkpt>
      <trkpt lat="48.49303" lon="-4.64649">
        <ele>76.396</ele>
        <time>2010-08-24T13:11:53Z</time>
      </trkpt>
      <trkpt lat="48.49456" lon="-4.64736">
        <ele>75.538</ele>
        <time>2010-08-24T13:12:15Z</time>
      </trkpt>
      <trkpt lat="48.49571" lon="-4.6483">
        <ele>76.961</ele>
        <time>2010-08-24T13:12:35Z</time>
      </trkpt>
      <trkpt lat="48.49671" lon="-4.64881">
        <ele>75.444</ele>
        <time>2010-08-24T13:12:51Z</time>
      </trkpt>
      <trkpt lat="48.4976" lon="-4.64892">
        <ele>73.246</ele>
        <time>2010-08-24T13:13:03Z</time>
      </trkpt>
      <trkpt lat="48.4988" lon="-4.649">
        <ele>70.045</ele>
        <time>2010-08-24T13:13:19Z</time>
      </trkpt>
      <trkpt lat="48.50034" lon="-4.64953">
        <ele>71.359</ele>
        <time>2010-08-24T13:13:41Z</time>
      </trkpt>
      <trkpt lat="48.5006" lon="-4.64972">
        <ele>68.182</ele>
        <time>2010-08-24T13:13:45Z</time>
      </trkpt>
      <trkpt lat="48.50067" lon="-4.64977">
        <ele>68.574</ele>
        <time>2010-08-24T13:13:46Z</time>
      </trkpt>
      <trkpt lat="48.50141" lon="-4.65066">
        <ele>68.729</ele>
        <time>2010-08-24T13:13:59Z</time>
      </trkpt>
      <trkpt lat="48.50159" lon="-4.65099">
        <ele>67.626</ele>
        <time>2010-08-24T13:14:04Z</time>
      </trkpt>
      <trkpt lat="48.50196" lon="-4.65168">
        <ele>66.228</ele>
        <time>2010-08-24T13:14:11Z</time>
      </trkpt>
      <trkpt lat="48.50205" lon="-4.65185">
        <ele>68.066</ele>
        <time>2010-08-24T13:14:13Z</time>
      </trkpt>
      <trkpt lat="48.50219" lon="-4.65212">
        <ele>66.61</ele>
        <time>2010-08-24T13:14:16Z</time>
      </trkpt>
      <trkpt lat="48.50307" lon="-4.65352">
        <ele>62.405</ele>
        <time>2010-08-24T13:14:33Z</time>
      </trkpt>
      <trkpt lat="48.50398" lon="-4.65387">
        <ele>63.587</ele>
        <time>2010-08-24T13:14:45Z</time>
      </trkpt>
      <trkpt lat="48.50429" lon="-4.65385">
        <ele>64.822</ele>
        <time>2010-08-24T13:14:49Z</time>
      </trkpt>
      <trkpt lat="48.50512" lon="-4.65381">
        <ele>67.971</ele>
        <time>2010-08-24T13:15:01Z</time>
      </trkpt>
      <trkpt lat="48.50518" lon="-4.65381">
        <ele>68.264</ele>
        <time>2010-08-24T13:15:02Z</time>
      </trkpt>
      <trkpt lat="48.50575" lon="-4.65378">
        <ele>71.459</ele>
        <time>2010-08-24T13:15:12Z</time>
      </trkpt>
      <trkpt lat="48.50639" lon="-4.65374">
        <ele>74.512</ele>
        <time>2010-08-24T13:15:23Z</time>
      </trkpt>
      <trkpt lat="48.50698" lon="-4.6537">
        <ele>77.59</ele>
        <time>2010-08-24T13:15:33Z</time>
      </trkpt>
      <trkpt lat="48.50791" lon="-4.65364">
        <ele>78.752</ele>
        <time>2010-08-24T13:15:49Z</time>
      </trkpt>
      <trkpt lat="48.5081" lon="-4.65363">
        <ele>80.51</ele>
        <time>2010-08-24T13:15:53Z</time>
      </trkpt>
      <trkpt lat="48.50918" lon="-4.65373">
        <ele>79.405</ele>
        <time>2010-08-24T13:16:15Z</time>
      </trkpt>
      <trkpt lat="48.50971" lon="-4.65402">
        <ele>76.334</ele>
        <time>2010-08-24T13:16:24Z</time>
      </trkpt>
      <trkpt lat="48.51058" lon="-4.65467">
        <ele>74.751</ele>
        <time>2010-08-24T13:16:37Z</time>
      </trkpt>
      <trkpt lat="48.51108" lon="-4.65507">
        <ele>72.451</ele>
        <time>2010-08-24T13:16:44Z</time>
      </trkpt>
      <trkpt lat="48.51173" lon="-4.65556">
        <ele>69.075</ele>
        <time>2010-08-24T13:16:52Z</time>
      </trkpt>
      <trkpt lat="48.51323" lon="-4.65698">
        <ele>69.11</ele>
        <time>2010-08-24T13:17:12Z</time>
      </trkpt>
      <trkpt lat="48.51426" lon="-4.65825">
        <ele>68.769</ele>
        <time>2010-08-24T13:17:30Z</time>
      </trkpt>
      <trkpt lat="48.51469" lon="-4.65881">
        <ele>69.694</ele>
        <time>2010-08-24T13:17:38Z</time>
      </trkpt>
      <trkpt lat="48.51597" lon="-4.66042">
        <ele>67.684</ele>
        <time>2010-08-24T13:18:00Z</time>
      </trkpt>
      <trkpt lat="48.51692" lon="-4.66086">
        <ele>64.521</ele>
        <time>2010-08-24T13:18:12Z</time>
      </trkpt>
      <trkpt lat="48.51709" lon="-4.66093">
        <ele>63.018</ele>
        <time>2010-08-24T13:18:14Z</time>
      </trkpt>
      <trkpt lat="48.51812" lon="-4.66137">
        <ele>59.806</ele>
        <time>2010-08-24T13:18:26Z</time>
      </trkpt>
      <trkpt lat="48.52024" lon="-4.66228">
        <ele>59.819</ele>
        <time>2010-08-24T13:18:51Z</time>
      </trkpt>
      <trkpt lat="48.52203" lon="-4.66304">
        <ele>62.93</ele>
        <time>2010-08-24T13:19:15Z</time>
      </trkpt>
      <trkpt lat="48.52259" lon="-4.66321">
        <ele>65.308</ele>
        <time>2010-08-24T13:19:24Z</time>
      </trkpt>
      <trkpt lat="48.52299" lon="-4.66328">
        <ele>68.407</ele>
        <time>2010-08-24T13:19:30Z</time>
      </trkpt>
      <trkpt lat="48.52305" lon="-4.66328">
        <ele>68.621</ele>
        <time>2010-08-24T13:19:31Z</time>
      </trkpt>
      <trkpt lat="48.52387" lon="-4.66319">
        <ele>69.342</ele>
        <time>2010-08-24T13:19:44Z</time>
      </trkpt>
      <trkpt lat="48.52538" lon="-4.66263">
        <ele>67.745</ele>
        <time>2010-08-24T13:20:07Z</time>
      </trkpt>
      <trkpt lat="48.52713" lon="-4.66171">
        <ele>66.492</ele>
        <time>2010-08-24T13:20:32Z</time>
      </trkpt>
      <trkpt lat="48.52822" lon="-4.66122">
        <ele>67.631</ele>
        <time>2010-08-24T13:20:49Z</time>
      </trkpt>
      <trkpt lat="48.52854" lon="-4.6611">
        <ele>67.137</ele>
        <time>2010-08-24T13:20:54Z</time>
      </trkpt>
      <trkpt lat="48.52859" lon="-4.66108">
        <ele>68.312</ele>
        <time>2010-08-24T13:20:58Z</time>
      </trkpt>
      <trkpt lat="48.52897" lon="-4.66095">
        <ele>67.719</ele>
        <time>2010-08-24T13:21:03Z</time>
      </trkpt>
      <trkpt lat="48.5302" lon="-4.66055">
        <ele>66.311</ele>
        <time>2010-08-24T13:21:21Z</time>
      </trkpt>
      <trkpt lat="48.53163" lon="-4.65986">
        <ele>63.725</ele>
        <time>2010-08-24T13:21:41Z</time>
      </trkpt>
      <trkpt lat="48.53284" lon="-4.65922">
        <ele>60.223</ele>
        <time>2010-08-24T13:21:57Z</time>
      </trkpt>
      <trkpt lat="48.53321" lon="-4.65916">
        <ele>56.384</ele>
        <time>2010-08-24T13:22:01Z</time>
      </trkpt>
      <trkpt lat="48.5333" lon="-4.65914">
        <ele>56.636</ele>
        <time>2010-08-24T13:22:02Z</time>
      </trkpt>
      <trkpt lat="48.53501" lon="-4.65884">
        <ele>55.253</ele>
        <time>2010-08-24T13:22:22Z</time>
      </trkpt>
      <trkpt lat="48.53516" lon="-4.65882">
        <ele>55.243</ele>
        <time>2010-08-24T13:22:24Z</time>
      </trkpt>
      <trkpt lat="48.53539" lon="-4.65879">
        <ele>53.619</ele>
        <time>2010-08-24T13:22:27Z</time>
      </trkpt>
      <trkpt lat="48.53565" lon="-4.65876">
        <ele>54.381</ele>
        <time>2010-08-24T13:22:31Z</time>
      </trkpt>
      <trkpt lat="48.53567" lon="-4.65876">
        <ele>54.595</ele>
        <time>2010-08-24T13:22:33Z</time>
      </trkpt>
      <trkpt lat="48.53584" lon="-4.6588">
        <ele>54.061</ele>
        <time>2010-08-24T13:22:38Z</time>
      </trkpt>
      <trkpt lat="48.53572" lon="-4.65884">
        <ele>55.508</ele>
        <time>2010-08-24T13:22:41Z</time>
      </trkpt>
      <trkpt lat="48.53567" lon="-4.65876">
        <ele>54.039</ele>
        <time>2010-08-24T13:22:43Z</time>
      </trkpt>
      <trkpt lat="48.53461" lon="-4.65889">
        <ele>55.732</ele>
        <time>2010-08-24T13:23:00Z</time>
      </trkpt>
      <trkpt lat="48.53318" lon="-4.65916">
        <ele>59.75</ele>
        <time>2010-08-24T13:23:25Z</time>
      </trkpt>
      <trkpt lat="48.53313" lon="-4.65917">
        <ele>59.281</ele>
        <time>2010-08-24T13:23:26Z</time>
      </trkpt>
      <trkpt lat="48.53277" lon="-4.65923">
        <ele>60.291</ele>
        <time>2010-08-24T13:23:33Z</time>
      </trkpt>
      <trkpt lat="48.53193" lon="-4.65971">
        <ele>63.424</ele>
        <time>2010-08-24T13:23:51Z</time>
      </trkpt>
      <trkpt lat="48.53065" lon="-4.66038">
        <ele>64.207</ele>
        <time>2010-08-24T13:24:17Z</time>
      </trkpt>
      <trkpt lat="48.52908" lon="-4.66092">
        <ele>65.1</ele>
        <time>2010-08-24T13:24:45Z</time>
      </trkpt>
      <trkpt lat="48.52902" lon="-4.66093">
        <ele>65.66</ele>
        <time>2010-08-24T13:24:46Z</time>
      </trkpt>
      <trkpt lat="48.52888" lon="-4.66124">
        <ele>65.23</ele>
        <time>2010-08-24T13:24:50Z</time>
      </trkpt>
      <trkpt lat="48.52861" lon="-4.66113">
        <ele>66.926</ele>
        <time>2010-08-24T13:24:55Z</time>
      </trkpt>
      <trkpt lat="48.52789" lon="-4.66134">
        <ele>64.135</ele>
        <time>2010-08-24T13:25:06Z</time>
      </trkpt>
      <trkpt lat="48.52624" lon="-4.66218">
        <ele>64.763</ele>
        <time>2010-08-24T13:25:33Z</time>
      </trkpt>
      <trkpt lat="48.52612" lon="-4.66225">
        <ele>65.687</ele>
        <time>2010-08-24T13:25:35Z</time>
      </trkpt>
      <trkpt lat="48.52575" lon="-4.66244">
        <ele>64.171</ele>
        <time>2010-08-24T13:25:41Z</time>
      </trkpt>
      <trkpt lat="48.52563" lon="-4.66251">
        <ele>65.764</ele>
        <time>2010-08-24T13:25:43Z</time>
      </trkpt>
      <trkpt lat="48.52387" lon="-4.66319">
        <ele>68.244</ele>
        <time>2010-08-24T13:26:10Z</time>
      </trkpt>
      <trkpt lat="48.52298" lon="-4.66328">
        <ele>65.403</ele>
        <time>2010-08-24T13:26:23Z</time>
      </trkpt>
      <trkpt lat="48.5223" lon="-4.66312">
        <ele>63.075</ele>
        <time>2010-08-24T13:26:31Z</time>
      </trkpt>
      <trkpt lat="48.52181" lon="-4.66296">
        <ele>60.709</ele>
        <time>2010-08-24T13:26:36Z</time>
      </trkpt>
      <trkpt lat="48.52038" lon="-4.66234">
        <ele>59.295</ele>
        <time>2010-08-24T13:26:52Z</time>
      </trkpt>
      <trkpt lat="48.51827" lon="-4.66143">
        <ele>60.891</ele>
        <time>2010-08-24T13:27:21Z</time>
      </trkpt>
      <trkpt lat="48.51756" lon="-4.66113">
        <ele>64.088</ele>
        <time>2010-08-24T13:27:33Z</time>
      </trkpt>
      <trkpt lat="48.5164" lon="-4.66063">
        <ele>66.989</ele>
        <time>2010-08-24T13:27:53Z</time>
      </trkpt>
      <trkpt lat="48.51574" lon="-4.66025">
        <ele>69.072</ele>
        <time>2010-08-24T13:28:05Z</time>
      </trkpt>
      <trkpt lat="48.51496" lon="-4.65921">
        <ele>69.824</ele>
        <time>2010-08-24T13:28:23Z</time>
      </trkpt>
      <trkpt lat="48.51372" lon="-4.6575">
        <ele>70.448</ele>
        <time>2010-08-24T13:28:49Z</time>
      </trkpt>
      <trkpt lat="48.51262" lon="-4.65633">
        <ele>67.135</ele>
        <time>2010-08-24T13:29:07Z</time>
      </trkpt>
      <trkpt lat="48.5119" lon="-4.6557">
        <ele>68.879</ele>
        <time>2010-08-24T13:29:18Z</time>
      </trkpt>
      <trkpt lat="48.51125" lon="-4.6552">
        <ele>71.706</ele>
        <time>2010-08-24T13:29:29Z</time>
      </trkpt>
      <trkpt lat="48.51035" lon="-4.65448">
        <ele>74.832</ele>
        <time>2010-08-24T13:29:45Z</time>
      </trkpt>
      <trkpt lat="48.51001" lon="-4.65421">
        <ele>76.014</ele>
        <time>2010-08-24T13:29:51Z</time>
      </trkpt>
      <trkpt lat="48.50897" lon="-4.65368">
        <ele>76.664</ele>
        <time>2010-08-24T13:30:08Z</time>
      </trkpt>
      <trkpt lat="48.50788" lon="-4.65364">
        <ele>78.194</ele>
        <time>2010-08-24T13:30:25Z</time>
      </trkpt>
      <trkpt lat="48.50722" lon="-4.65368">
        <ele>75.074</ele>
        <time>2010-08-24T13:30:35Z</time>
      </trkpt>
      <trkpt lat="48.50645" lon="-4.65373">
        <ele>71.417</ele>
        <time>2010-08-24T13:30:45Z</time>
      </trkpt>
      <trkpt lat="48.50637" lon="-4.65374">
        <ele>71.163</ele>
        <time>2010-08-24T13:30:46Z</time>
      </trkpt>
      <trkpt lat="48.50589" lon="-4.65377">
        <ele>68.997</ele>
        <time>2010-08-24T13:30:51Z</time>
      </trkpt>
      <trkpt lat="48.50559" lon="-4.65379">
        <ele>67.173</ele>
        <time>2010-08-24T13:30:54Z</time>
      </trkpt>
      <trkpt lat="48.50528" lon="-4.6538">
        <ele>64.953</ele>
        <time>2010-08-24T13:30:57Z</time>
      </trkpt>
      <trkpt lat="48.50485" lon="-4.65382">
        <ele>60.981</ele>
        <time>2010-08-24T13:31:01Z</time>
      </trkpt>
      <trkpt lat="48.50474" lon="-4.65383">
        <ele>62.07</ele>
        <time>2010-08-24T13:31:02Z</time>
      </trkpt>
      <trkpt lat="48.50342" lon="-4.65372">
        <ele>62.621</ele>
        <time>2010-08-24T13:31:16Z</time>
      </trkpt>
      <trkpt lat="48.50282" lon="-4.65323">
        <ele>65.676</ele>
        <time>2010-08-24T13:31:25Z</time>
      </trkpt>
      <trkpt lat="48.50215" lon="-4.65203">
        <ele>66.541</ele>
        <time>2010-08-24T13:31:40Z</time>
      </trkpt>
      <trkpt lat="48.50198" lon="-4.65172">
        <ele>68.18</ele>
        <time>2010-08-24T13:31:44Z</time>
      </trkpt>
      <trkpt lat="48.50096" lon="-4.64997">
        <ele>68.137</ele>
        <time>2010-08-24T13:32:07Z</time>
      </trkpt>
      <trkpt lat="48.50013" lon="-4.64942">
        <ele>71.429</ele>
        <time>2010-08-24T13:32:21Z</time>
      </trkpt>
      <trkpt lat="48.49944" lon="-4.6492">
        <ele>70.992</ele>
        <time>2010-08-24T13:32:32Z</time>
      </trkpt>
      <trkpt lat="48.49898" lon="-4.64906">
        <ele>71.355</ele>
        <time>2010-08-24T13:32:39Z</time>
      </trkpt>
      <trkpt lat="48.4987" lon="-4.64897">
        <ele>69.009</ele>
        <time>2010-08-24T13:32:43Z</time>
      </trkpt>
      <trkpt lat="48.49783" lon="-4.64891">
        <ele>72.156</ele>
        <time>2010-08-24T13:32:57Z</time>
      </trkpt>
      <trkpt lat="48.49641" lon="-4.64872">
        <ele>75.779</ele>
        <time>2010-08-24T13:33:20Z</time>
      </trkpt>
      <trkpt lat="48.49538" lon="-4.648">
        <ele>76.351</ele>
        <time>2010-08-24T13:33:38Z</time>
      </trkpt>
      <trkpt lat="48.49404" lon="-4.64703">
        <ele>75.299</ele>
        <time>2010-08-24T13:33:59Z</time>
      </trkpt>
      <trkpt lat="48.49253" lon="-4.64631">
        <ele>78.398</ele>
        <time>2010-08-24T13:34:22Z</time>
      </trkpt>
      <trkpt lat="48.49197" lon="-4.6461">
        <ele>77.764</ele>
        <time>2010-08-24T13:34:31Z</time>
      </trkpt>
      <trkpt lat="48.4909" lon="-4.64577">
        <ele>79.916</ele>
        <time>2010-08-24T13:34:48Z</time>
      </trkpt>
      <trkpt lat="48.48914" lon="-4.64538">
        <ele>77.622</ele>
        <time>2010-08-24T13:35:15Z</time>
      </trkpt>
      <trkpt lat="48.48733" lon="-4.64504">
        <ele>79.956</ele>
        <time>2010-08-24T13:35:42Z</time>
      </trkpt>
      <trkpt lat="48.48527" lon="-4.64465">
        <ele>82.183</ele>
        <time>2010-08-24T13:36:14Z</time>
      </trkpt>
      <trkpt lat="48.48436" lon="-4.64419">
        <ele>81.559</ele>
        <time>2010-08-24T13:36:28Z</time>
      </trkpt>
      <trkpt lat="48.48325" lon="-4.64355">
        <ele>78.311</ele>
        <time>2010-08-24T13:36:43Z</time>
      </trkpt>
      <trkpt lat="48.48117" lon="-4.64235">
        <ele>78.006</ele>
        <time>2010-08-24T13:37:10Z</time>
      </trkpt>
      <trkpt lat="48.47981" lon="-4.64159">
        <ele>78.172</ele>
        <time>2010-08-24T13:37:30Z</time>
      </trkpt>
      <trkpt lat="48.47934" lon="-4.64131">
        <ele>81.502</ele>
        <time>2010-08-24T13:37:36Z</time>
      </trkpt>
      <trkpt lat="48.47919" lon="-4.64122">
        <ele>82.271</ele>
        <time>2010-08-24T13:37:38Z</time>
      </trkpt>
      <trkpt lat="48.47855" lon="-4.64069">
        <ele>81.379</ele>
        <time>2010-08-24T13:37:52Z</time>
      </trkpt>
      <trkpt lat="48.47775" lon="-4.64026">
        <ele>81.556</ele>
        <time>2010-08-24T13:38:03Z</time>
      </trkpt>
      <trkpt lat="48.47676" lon="-4.64015">
        <ele>81.389</ele>
        <time>2010-08-24T13:38:21Z</time>
      </trkpt>
      <trkpt lat="48.47586" lon="-4.64019">
        <ele>83.326</ele>
        <time>2010-08-24T13:38:39Z</time>
      </trkpt>
      <trkpt lat="48.47447" lon="-4.64043">
        <ele>84.275</ele>
        <time>2010-08-24T13:39:07Z</time>
      </trkpt>
      <trkpt lat="48.47417" lon="-4.64035">
        <ele>84.894</ele>
        <time>2010-08-24T13:39:13Z</time>
      </trkpt>
      <trkpt lat="48.47348" lon="-4.63975">
        <ele>86.277</ele>
        <time>2010-08-24T13:39:30Z</time>
      </trkpt>
      <trkpt lat="48.47332" lon="-4.63962">
        <ele>86.931</ele>
        <time>2010-08-24T13:39:33Z</time>
      </trkpt>
      <trkpt lat="48.47321" lon="-4.63953">
        <ele>88.434</ele>
        <time>2010-08-24T13:39:37Z</time>
      </trkpt>
      <trkpt lat="48.47323" lon="-4.63925">
        <ele>87.725</ele>
        <time>2010-08-24T13:39:40Z</time>
      </trkpt>
      <trkpt lat="48.47323" lon="-4.63883">
        <ele>88.389</ele>
        <time>2010-08-24T13:39:46Z</time>
      </trkpt>
      <trkpt lat="48.47323" lon="-4.63816">
        <ele>87.63</ele>
        <time>2010-08-24T13:39:56Z</time>
      </trkpt>
      <trkpt lat="48.47308" lon="-4.63768">
        <ele>86.052</ele>
        <time>2010-08-24T13:40:00Z</time>
      </trkpt>
      <trkpt lat="48.47302" lon="-4.63762">
        <ele>85.944</ele>
        <time>2010-08-24T13:40:01Z</time>
      </trkpt>
      <trkpt lat="48.4721" lon="-4.63688">
        <ele>86.367</ele>
        <time>2010-08-24T13:40:18Z</time>
      </trkpt>
      <trkpt lat="48.47166" lon="-4.63669">
        <ele>88.349</ele>
        <time>2010-08-24T13:40:27Z</time>
      </trkpt>
      <trkpt lat="48.47157" lon="-4.63665">
        <ele>89.282</ele>
        <time>2010-08-24T13:40:29Z</time>
      </trkpt>
      <trkpt lat="48.47119" lon="-4.63596">
        <ele>89.676</ele>
        <time>2010-08-24T13:40:41Z</time>
      </trkpt>
      <trkpt lat="48.47098" lon="-4.63416">
        <ele>88.795</ele>
        <time>2010-08-24T13:41:02Z</time>
      </trkpt>
      <trkpt lat="48.47096" lon="-4.6339">
        <ele>90.108</ele>
        <time>2010-08-24T13:41:05Z</time>
      </trkpt>
      <trkpt lat="48.47093" lon="-4.63349">
        <ele>92.004</ele>
        <time>2010-08-24T13:41:10Z</time>
      </trkpt>
      <trkpt lat="48.47095" lon="-4.63226">
        <ele>92.764</ele>
        <time>2010-08-24T13:41:25Z</time>
      </trkpt>
      <trkpt lat="48.47103" lon="-4.63048">
        <ele>95.197</ele>
        <time>2010-08-24T13:41:47Z</time>
      </trkpt>
      <trkpt lat="48.47111" lon="-4.62852">
        <ele>96.34</ele>
        <time>2010-08-24T13:42:11Z</time>
      </trkpt>
      <trkpt lat="48.47121" lon="-4.62798">
        <ele>96.64</ele>
        <time>2010-08-24T13:42:18Z</time>
      </trkpt>
      <trkpt lat="48.47168" lon="-4.62682">
        <ele>96.69</ele>
        <time>2010-08-24T13:42:33Z</time>
      </trkpt>
      <trkpt lat="48.4717" lon="-4.6262">
        <ele>97.289</ele>
        <time>2010-08-24T13:42:40Z</time>
      </trkpt>
      <trkpt lat="48.47146" lon="-4.62446">
        <ele>94.237</ele>
        <time>2010-08-24T13:42:58Z</time>
      </trkpt>
      <trkpt lat="48.47139" lon="-4.624">
        <ele>92.244</ele>
        <time>2010-08-24T13:43:02Z</time>
      </trkpt>
      <trkpt lat="48.47107" lon="-4.62165">
        <ele>92.207</ele>
        <time>2010-08-24T13:43:24Z</time>
      </trkpt>
      <trkpt lat="48.47099" lon="-4.61995">
        <ele>92.07</ele>
        <time>2010-08-24T13:43:41Z</time>
      </trkpt>
      <trkpt lat="48.47088" lon="-4.61803">
        <ele>90.091</ele>
        <time>2010-08-24T13:44:00Z</time>
      </trkpt>
      <trkpt lat="48.47117" lon="-4.61701">
        <ele>90.35</ele>
        <time>2010-08-24T13:44:11Z</time>
      </trkpt>
      <trkpt lat="48.47206" lon="-4.6156">
        <ele>87.408</ele>
        <time>2010-08-24T13:44:29Z</time>
      </trkpt>
      <trkpt lat="48.47254" lon="-4.61473">
        <ele>87.34</ele>
        <time>2010-08-24T13:44:41Z</time>
      </trkpt>
      <trkpt lat="48.47265" lon="-4.61412">
        <ele>88.149</ele>
        <time>2010-08-24T13:44:45Z</time>
      </trkpt>
      <trkpt lat="48.47258" lon="-4.61323">
        <ele>90.801</ele>
        <time>2010-08-24T13:44:56Z</time>
      </trkpt>
      <trkpt lat="48.47247" lon="-4.61239">
        <ele>90.907</ele>
        <time>2010-08-24T13:45:04Z</time>
      </trkpt>
      <trkpt lat="48.47232" lon="-4.61074">
        <ele>90.571</ele>
        <time>2010-08-24T13:45:24Z</time>
      </trkpt>
      <trkpt lat="48.47221" lon="-4.61">
        <ele>89.145</ele>
        <time>2010-08-24T13:45:30Z</time>
      </trkpt>
      <trkpt lat="48.47183" lon="-4.60814">
        <ele>86.293</ele>
        <time>2010-08-24T13:45:47Z</time>
      </trkpt>
      <trkpt lat="48.4713" lon="-4.6068">
        <ele>88.857</ele>
        <time>2010-08-24T13:46:03Z</time>
      </trkpt>
      <trkpt lat="48.47093" lon="-4.60585">
        <ele>91.488</ele>
        <time>2010-08-24T13:46:17Z</time>
      </trkpt>
      <trkpt lat="48.47067" lon="-4.60466">
        <ele>93.435</ele>
        <time>2010-08-24T13:46:33Z</time>
      </trkpt>
      <trkpt lat="48.47065" lon="-4.60304">
        <ele>90.964</ele>
        <time>2010-08-24T13:46:51Z</time>
      </trkpt>
      <trkpt lat="48.47061" lon="-4.60247">
        <ele>89.818</ele>
        <time>2010-08-24T13:46:56Z</time>
      </trkpt>
      <trkpt lat="48.47055" lon="-4.60202">
        <ele>88.442</ele>
        <time>2010-08-24T13:47:00Z</time>
      </trkpt>
      <trkpt lat="48.47027" lon="-4.59999">
        <ele>87.063</ele>
        <time>2010-08-24T13:47:19Z</time>
      </trkpt>
      <trkpt lat="48.47011" lon="-4.59829">
        <ele>86.669</ele>
        <time>2010-08-24T13:47:35Z</time>
      </trkpt>
      <trkpt lat="48.46965" lon="-4.5966">
        <ele>85.577</ele>
        <time>2010-08-24T13:47:52Z</time>
      </trkpt>
      <trkpt lat="48.46881" lon="-4.59472">
        <ele>83.608</ele>
        <time>2010-08-24T13:48:14Z</time>
      </trkpt>
      <trkpt lat="48.4683" lon="-4.5936">
        <ele>83.632</ele>
        <time>2010-08-24T13:48:28Z</time>
      </trkpt>
      <trkpt lat="48.46741" lon="-4.59184">
        <ele>86.073</ele>
        <time>2010-08-24T13:48:52Z</time>
      </trkpt>
      <trkpt lat="48.46734" lon="-4.5917">
        <ele>86.768</ele>
        <time>2010-08-24T13:48:54Z</time>
      </trkpt>
      <trkpt lat="48.46639" lon="-4.59006">
        <ele>83.711</ele>
        <time>2010-08-24T13:49:16Z</time>
      </trkpt>
      <trkpt lat="48.46606" lon="-4.58952">
        <ele>84.462</ele>
        <time>2010-08-24T13:49:23Z</time>
      </trkpt>
      <trkpt lat="48.46567" lon="-4.58885">
        <ele>84.907</ele>
        <time>2010-08-24T13:49:32Z</time>
      </trkpt>
      <trkpt lat="48.46464" lon="-4.58714">
        <ele>85.424</ele>
        <time>2010-08-24T13:49:57Z</time>
      </trkpt>
      <trkpt lat="48.46349" lon="-4.58521">
        <ele>85.195</ele>
        <time>2010-08-24T13:50:24Z</time>
      </trkpt>
      <trkpt lat="48.46253" lon="-4.58377">
        <ele>85.374</ele>
        <time>2010-08-24T13:50:46Z</time>
      </trkpt>
      <trkpt lat="48.46183" lon="-4.58285">
        <ele>88.216</ele>
        <time>2010-08-24T13:51:03Z</time>
      </trkpt>
      <trkpt lat="48.46161" lon="-4.58256">
        <ele>87.616</ele>
        <time>2010-08-24T13:51:08Z</time>
      </trkpt>
      <trkpt lat="48.46144" lon="-4.58234">
        <ele>87.837</ele>
        <time>2010-08-24T13:51:12Z</time>
      </trkpt>
      <trkpt lat="48.46156" lon="-4.58051">
        <ele>84.968</ele>
        <time>2010-08-24T13:51:31Z</time>
      </trkpt>
      <trkpt lat="48.46183" lon="-4.57886">
        <ele>84.69</ele>
        <time>2010-08-24T13:51:47Z</time>
      </trkpt>
      <trkpt lat="48.46182" lon="-4.57851">
        <ele>85.645</ele>
        <time>2010-08-24T13:51:52Z</time>
      </trkpt>
      <trkpt lat="48.46189" lon="-4.57827">
        <ele>85.45</ele>
        <time>2010-08-24T13:51:56Z</time>
      </trkpt>
      <trkpt lat="48.46246" lon="-4.57684">
        <ele>85.427</ele>
        <time>2010-08-24T13:52:13Z</time>
      </trkpt>
      <trkpt lat="48.4625" lon="-4.57675">
        <ele>85.08</ele>
        <time>2010-08-24T13:52:14Z</time>
      </trkpt>
      <trkpt lat="48.46266" lon="-4.57638">
        <ele>84.59</ele>
        <time>2010-08-24T13:52:18Z</time>
      </trkpt>
      <trkpt lat="48.46296" lon="-4.57566">
        <ele>82.978</ele>
        <time>2010-08-24T13:52:25Z</time>
      </trkpt>
      <trkpt lat="48.46351" lon="-4.57436">
        <ele>83.874</ele>
        <time>2010-08-24T13:52:38Z</time>
      </trkpt>
      <trkpt lat="48.46428" lon="-4.57277">
        <ele>84.876</ele>
        <time>2010-08-24T13:52:55Z</time>
      </trkpt>
      <trkpt lat="48.4647" lon="-4.57214">
        <ele>85.348</ele>
        <time>2010-08-24T13:53:03Z</time>
      </trkpt>
      <trkpt lat="48.46487" lon="-4.57165">
        <ele>85.599</ele>
        <time>2010-08-24T13:53:08Z</time>
      </trkpt>
      <trkpt lat="48.46519" lon="-4.5696">
        <ele>86.101</ele>
        <time>2010-08-24T13:53:27Z</time>
      </trkpt>
      <trkpt lat="48.46522" lon="-4.56941">
        <ele>87.305</ele>
        <time>2010-08-24T13:53:30Z</time>
      </trkpt>
      <trkpt lat="48.4655" lon="-4.5688">
        <ele>85.268</ele>
        <time>2010-08-24T13:53:40Z</time>
      </trkpt>
      <trkpt lat="48.46573" lon="-4.56831">
        <ele>84.734</ele>
        <time>2010-08-24T13:53:46Z</time>
      </trkpt>
      <trkpt lat="48.46638" lon="-4.5667">
        <ele>83.479</ele>
        <time>2010-08-24T13:54:04Z</time>
      </trkpt>
      <trkpt lat="48.46654" lon="-4.56633">
        <ele>82.52</ele>
        <time>2010-08-24T13:54:08Z</time>
      </trkpt>
      <trkpt lat="48.46698" lon="-4.5656">
        <ele>81.651</ele>
        <time>2010-08-24T13:54:17Z</time>
      </trkpt>
      <trkpt lat="48.46709" lon="-4.56527">
        <ele>81.983</ele>
        <time>2010-08-24T13:54:21Z</time>
      </trkpt>
      <trkpt lat="48.46709" lon="-4.56509">
        <ele>82.634</ele>
        <time>2010-08-24T13:54:25Z</time>
      </trkpt>
      <trkpt lat="48.46717" lon="-4.56483">
        <ele>81.88</ele>
        <time>2010-08-24T13:54:31Z</time>
      </trkpt>
      <trkpt lat="48.46746" lon="-4.56453">
        <ele>81.956</ele>
        <time>2010-08-24T13:54:37Z</time>
      </trkpt>
      <trkpt lat="48.46768" lon="-4.56425">
        <ele>82.37</ele>
        <time>2010-08-24T13:54:42Z</time>
      </trkpt>
      <trkpt lat="48.46788" lon="-4.56388">
        <ele>81.324</ele>
        <time>2010-08-24T13:54:47Z</time>
      </trkpt>
      <trkpt lat="48.46856" lon="-4.56297">
        <ele>79.364</ele>
        <time>2010-08-24T13:55:01Z</time>
      </trkpt>
      <trkpt lat="48.46861" lon="-4.56289">
        <ele>78.95</ele>
        <time>2010-08-24T13:55:02Z</time>
      </trkpt>
      <trkpt lat="48.46892" lon="-4.56205">
        <ele>75.546</ele>
        <time>2010-08-24T13:55:10Z</time>
      </trkpt>
      <trkpt lat="48.46912" lon="-4.5613">
        <ele>72.087</ele>
        <time>2010-08-24T13:55:16Z</time>
      </trkpt>
      <trkpt lat="48.46915" lon="-4.56117">
        <ele>72.208</ele>
        <time>2010-08-24T13:55:17Z</time>
      </trkpt>
      <trkpt lat="48.46948" lon="-4.55997">
        <ele>69.649</ele>
        <time>2010-08-24T13:55:26Z</time>
      </trkpt>
      <trkpt lat="48.46993" lon="-4.55828">
        <ele>72.992</ele>
        <time>2010-08-24T13:55:40Z</time>
      </trkpt>
      <trkpt lat="48.46997" lon="-4.55807">
        <ele>73.823</ele>
        <time>2010-08-24T13:55:42Z</time>
      </trkpt>
      <trkpt lat="48.47002" lon="-4.5576">
        <ele>75.731</ele>
        <time>2010-08-24T13:55:47Z</time>
      </trkpt>
      <trkpt lat="48.47005" lon="-4.55699">
        <ele>77.592</ele>
        <time>2010-08-24T13:55:54Z</time>
      </trkpt>
      <trkpt lat="48.47005" lon="-4.55674">
        <ele>79.144</ele>
        <time>2010-08-24T13:55:57Z</time>
      </trkpt>
      <trkpt lat="48.47005" lon="-4.55666">
        <ele>79.197</ele>
        <time>2010-08-24T13:55:58Z</time>
      </trkpt>
      <trkpt lat="48.47005" lon="-4.55628">
        <ele>81.005</ele>
        <time>2010-08-24T13:56:05Z</time>
      </trkpt>
      <trkpt lat="48.4702" lon="-4.55518">
        <ele>79.214</ele>
        <time>2010-08-24T13:56:14Z</time>
      </trkpt>
      <trkpt lat="48.47058" lon="-4.55304">
        <ele>81.189</ele>
        <time>2010-08-24T13:56:35Z</time>
      </trkpt>
      <trkpt lat="48.4708" lon="-4.55163">
        <ele>84.423</ele>
        <time>2010-08-24T13:56:49Z</time>
      </trkpt>
      <trkpt lat="48.47097" lon="-4.54963">
        <ele>86.437</ele>
        <time>2010-08-24T13:57:09Z</time>
      </trkpt>
      <trkpt lat="48.47094" lon="-4.54792">
        <ele>85.91</ele>
        <time>2010-08-24T13:57:27Z</time>
      </trkpt>
      <trkpt lat="48.47115" lon="-4.54656">
        <ele>85.395</ele>
        <time>2010-08-24T13:57:41Z</time>
      </trkpt>
      <trkpt lat="48.47123" lon="-4.54616">
        <ele>85.202</ele>
        <time>2010-08-24T13:57:45Z</time>
      </trkpt>
      <trkpt lat="48.47144" lon="-4.54576">
        <ele>86.292</ele>
        <time>2010-08-24T13:57:50Z</time>
      </trkpt>
      <trkpt lat="48.47244" lon="-4.54411">
        <ele>84.782</ele>
        <time>2010-08-24T13:58:11Z</time>
      </trkpt>
      <trkpt lat="48.47274" lon="-4.54264">
        <ele>83.045</ele>
        <time>2010-08-24T13:58:24Z</time>
      </trkpt>
      <trkpt lat="48.47289" lon="-4.5415">
        <ele>81.658</ele>
        <time>2010-08-24T13:58:34Z</time>
      </trkpt>
      <trkpt lat="48.47369" lon="-4.53982">
        <ele>80.257</ele>
        <time>2010-08-24T13:58:51Z</time>
      </trkpt>
      <trkpt lat="48.47433" lon="-4.53787">
        <ele>82.284</ele>
        <time>2010-08-24T13:59:10Z</time>
      </trkpt>
      <trkpt lat="48.47442" lon="-4.5376">
        <ele>81.892</ele>
        <time>2010-08-24T13:59:13Z</time>
      </trkpt>
      <trkpt lat="48.47445" lon="-4.53723">
        <ele>81.507</ele>
        <time>2010-08-24T13:59:17Z</time>
      </trkpt>
      <trkpt lat="48.47447" lon="-4.53697">
        <ele>81.005</ele>
        <time>2010-08-24T13:59:21Z</time>
      </trkpt>
      <trkpt lat="48.47437" lon="-4.53643">
        <ele>81.153</ele>
        <time>2010-08-24T13:59:25Z</time>
      </trkpt>
      <trkpt lat="48.47434" lon="-4.53594">
        <ele>80.333</ele>
        <time>2010-08-24T13:59:30Z</time>
      </trkpt>
      <trkpt lat="48.4749" lon="-4.53469">
        <ele>83.448</ele>
        <time>2010-08-24T13:59:46Z</time>
      </trkpt>
      <trkpt lat="48.47494" lon="-4.53462">
        <ele>83.67</ele>
        <time>2010-08-24T13:59:47Z</time>
      </trkpt>
      <trkpt lat="48.47543" lon="-4.53338">
        <ele>83.442</ele>
        <time>2010-08-24T14:00:02Z</time>
      </trkpt>
      <trkpt lat="48.47599" lon="-4.53226">
        <ele>80.465</ele>
        <time>2010-08-24T14:00:15Z</time>
      </trkpt>
      <trkpt lat="48.4765" lon="-4.53092">
        <ele>79.07</ele>
        <time>2010-08-24T14:00:29Z</time>
      </trkpt>
      <trkpt lat="48.47703" lon="-4.52911">
        <ele>77.453</ele>
        <time>2010-08-24T14:00:48Z</time>
      </trkpt>
      <trkpt lat="48.4774" lon="-4.52811">
        <ele>78.973</ele>
        <time>2010-08-24T14:01:02Z</time>
      </trkpt>
      <trkpt lat="48.47761" lon="-4.5276">
        <ele>79.257</ele>
        <time>2010-08-24T14:01:11Z</time>
      </trkpt>
      <trkpt lat="48.47764" lon="-4.52754">
        <ele>79.355</ele>
        <time>2010-08-24T14:01:12Z</time>
      </trkpt>
      <trkpt lat="48.47784" lon="-4.52712">
        <ele>79.825</ele>
        <time>2010-08-24T14:01:18Z</time>
      </trkpt>
      <trkpt lat="48.47791" lon="-4.527">
        <ele>79.928</ele>
        <time>2010-08-24T14:01:20Z</time>
      </trkpt>
      <trkpt lat="48.4788" lon="-4.52533">
        <ele>79.439</ele>
        <time>2010-08-24T14:01:42Z</time>
      </trkpt>
      <trkpt lat="48.47931" lon="-4.52422">
        <ele>76.558</ele>
        <time>2010-08-24T14:01:54Z</time>
      </trkpt>
      <trkpt lat="48.47973" lon="-4.52323">
        <ele>74.02</ele>
        <time>2010-08-24T14:02:03Z</time>
      </trkpt>
      <trkpt lat="48.47999" lon="-4.52291">
        <ele>73.912</ele>
        <time>2010-08-24T14:02:07Z</time>
      </trkpt>
      <trkpt lat="48.48013" lon="-4.52282">
        <ele>74.659</ele>
        <time>2010-08-24T14:02:09Z</time>
      </trkpt>
      <trkpt lat="48.48096" lon="-4.52253">
        <ele>75.245</ele>
        <time>2010-08-24T14:02:21Z</time>
      </trkpt>
      <trkpt lat="48.48129" lon="-4.5224">
        <ele>75.19</ele>
        <time>2010-08-24T14:02:26Z</time>
      </trkpt>
      <trkpt lat="48.48154" lon="-4.52203">
        <ele>73.911</ele>
        <time>2010-08-24T14:02:31Z</time>
      </trkpt>
      <trkpt lat="48.48192" lon="-4.52115">
        <ele>76.5</ele>
        <time>2010-08-24T14:02:41Z</time>
      </trkpt>
      <trkpt lat="48.48211" lon="-4.52081">
        <ele>77.385</ele>
        <time>2010-08-24T14:02:46Z</time>
      </trkpt>
      <trkpt lat="48.48231" lon="-4.52059">
        <ele>77.991</ele>
        <time>2010-08-24T14:02:50Z</time>
      </trkpt>
      <trkpt lat="48.48334" lon="-4.52003">
        <ele>78.959</ele>
        <time>2010-08-24T14:03:07Z</time>
      </trkpt>
      <trkpt lat="48.48479" lon="-4.519">
        <ele>78.447</ele>
        <time>2010-08-24T14:03:31Z</time>
      </trkpt>
      <trkpt lat="48.48545" lon="-4.51789">
        <ele>79.22</ele>
        <time>2010-08-24T14:03:45Z</time>
      </trkpt>
      <trkpt lat="48.48566" lon="-4.51748">
        <ele>78.354</ele>
        <time>2010-08-24T14:03:50Z</time>
      </trkpt>
      <trkpt lat="48.48586" lon="-4.51706">
        <ele>78.251</ele>
        <time>2010-08-24T14:03:55Z</time>
      </trkpt>
      <trkpt lat="48.48628" lon="-4.51615">
        <ele>79.163</ele>
        <time>2010-08-24T14:04:06Z</time>
      </trkpt>
      <trkpt lat="48.48719" lon="-4.51413">
        <ele>78.621</ele>
        <time>2010-08-24T14:04:29Z</time>
      </trkpt>
      <trkpt lat="48.48742" lon="-4.51381">
        <ele>77.073</ele>
        <time>2010-08-24T14:04:33Z</time>
      </trkpt>
      <trkpt lat="48.48827" lon="-4.5133">
        <ele>74.829</ele>
        <time>2010-08-24T14:04:44Z</time>
      </trkpt>
      <trkpt lat="48.4887" lon="-4.51304">
        <ele>73.386</ele>
        <time>2010-08-24T14:04:49Z</time>
      </trkpt>
      <trkpt lat="48.49045" lon="-4.51193">
        <ele>71.532</ele>
        <time>2010-08-24T14:05:11Z</time>
      </trkpt>
      <trkpt lat="48.49048" lon="-4.51191">
        <ele>73.154</ele>
        <time>2010-08-24T14:05:14Z</time>
      </trkpt>
      <trkpt lat="48.49142" lon="-4.51123">
        <ele>73.281</ele>
        <time>2010-08-24T14:05:25Z</time>
      </trkpt>
      <trkpt lat="48.49282" lon="-4.51058">
        <ele>74.439</ele>
        <time>2010-08-24T14:05:45Z</time>
      </trkpt>
      <trkpt lat="48.49368" lon="-4.5102">
        <ele>73.025</ele>
        <time>2010-08-24T14:05:57Z</time>
      </trkpt>
      <trkpt lat="48.49429" lon="-4.50994">
        <ele>70.157</ele>
        <time>2010-08-24T14:06:05Z</time>
      </trkpt>
      <trkpt lat="48.49437" lon="-4.5099">
        <ele>71.014</ele>
        <time>2010-08-24T14:06:06Z</time>
      </trkpt>
      <trkpt lat="48.49531" lon="-4.50996">
        <ele>70.584</ele>
        <time>2010-08-24T14:06:18Z</time>
      </trkpt>
      <trkpt lat="48.49541" lon="-4.50997">
        <ele>70.89</ele>
        <time>2010-08-24T14:06:21Z</time>
      </trkpt>
      <trkpt lat="48.49575" lon="-4.50992">
        <ele>68.39</ele>
        <time>2010-08-24T14:06:24Z</time>
      </trkpt>
      <trkpt lat="48.49634" lon="-4.50968">
        <ele>64.92</ele>
        <time>2010-08-24T14:06:31Z</time>
      </trkpt>
      <trkpt lat="48.49682" lon="-4.50954">
        <ele>61.586</ele>
        <time>2010-08-24T14:06:36Z</time>
      </trkpt>
      <trkpt lat="48.49712" lon="-4.50945">
        <ele>60.117</ele>
        <time>2010-08-24T14:06:39Z</time>
      </trkpt>
      <trkpt lat="48.49752" lon="-4.50877">
        <ele>60.613</ele>
        <time>2010-08-24T14:06:46Z</time>
      </trkpt>
      <trkpt lat="48.49811" lon="-4.5074">
        <ele>60.729</ele>
        <time>2010-08-24T14:07:01Z</time>
      </trkpt>
      <trkpt lat="48.49839" lon="-4.5069">
        <ele>58.557</ele>
        <time>2010-08-24T14:07:06Z</time>
      </trkpt>
      <trkpt lat="48.49862" lon="-4.50647">
        <ele>56.898</ele>
        <time>2010-08-24T14:07:10Z</time>
      </trkpt>
      <trkpt lat="48.49896" lon="-4.5057">
        <ele>56.8</ele>
        <time>2010-08-24T14:07:18Z</time>
      </trkpt>
      <trkpt lat="48.49902" lon="-4.50559">
        <ele>58.642</ele>
        <time>2010-08-24T14:07:21Z</time>
      </trkpt>
      <trkpt lat="48.49904" lon="-4.50555">
        <ele>58.593</ele>
        <time>2010-08-24T14:07:36Z</time>
      </trkpt>
      <trkpt lat="48.49904" lon="-4.50555">
        <ele>58.513</ele>
        <time>2010-08-24T14:08:25Z</time>
      </trkpt>
      <trkpt lat="48.49906" lon="-4.50551">
        <ele>58.841</ele>
        <time>2010-08-24T14:08:28Z</time>
      </trkpt>
      <trkpt lat="48.49899" lon="-4.5054">
        <ele>58.55</ele>
        <time>2010-08-24T14:08:31Z</time>
      </trkpt>
      <trkpt lat="48.49893" lon="-4.50531">
        <ele>58.098</ele>
        <time>2010-08-24T14:08:33Z</time>
      </trkpt>
      <trkpt lat="48.49877" lon="-4.50505">
        <ele>57.858</ele>
        <time>2010-08-24T14:08:37Z</time>
      </trkpt>
      <trkpt lat="48.49862" lon="-4.50484">
        <ele>57.015</ele>
        <time>2010-08-24T14:08:41Z</time>
      </trkpt>
      <trkpt lat="48.49788" lon="-4.50414">
        <ele>58.004</ele>
        <time>2010-08-24T14:08:57Z</time>
      </trkpt>
      <trkpt lat="48.49704" lon="-4.5034">
        <ele>61.068</ele>
        <time>2010-08-24T14:09:15Z</time>
      </trkpt>
      <trkpt lat="48.49644" lon="-4.50291">
        <ele>64.226</ele>
        <time>2010-08-24T14:09:28Z</time>
      </trkpt>
      <trkpt lat="48.49568" lon="-4.50246">
        <ele>63.676</ele>
        <time>2010-08-24T14:09:43Z</time>
      </trkpt>
      <trkpt lat="48.49546" lon="-4.50239">
        <ele>61.54</ele>
        <time>2010-08-24T14:09:47Z</time>
      </trkpt>
      <trkpt lat="48.49452" lon="-4.50212">
        <ele>60.311</ele>
        <time>2010-08-24T14:10:03Z</time>
      </trkpt>
      <trkpt lat="48.49324" lon="-4.50184">
        <ele>59.385</ele>
        <time>2010-08-24T14:10:22Z</time>
      </trkpt>
      <trkpt lat="48.4914" lon="-4.50148">
        <ele>58.531</ele>
        <time>2010-08-24T14:10:47Z</time>
      </trkpt>
      <trkpt lat="48.49125" lon="-4.50129">
        <ele>59.763</ele>
        <time>2010-08-24T14:10:50Z</time>
      </trkpt>
      <trkpt lat="48.49116" lon="-4.50118">
        <ele>59.966</ele>
        <time>2010-08-24T14:10:52Z</time>
      </trkpt>
      <trkpt lat="48.49082" lon="-4.50101">
        <ele>60.48</ele>
        <time>2010-08-24T14:10:58Z</time>
      </trkpt>
      <trkpt lat="48.48995" lon="-4.50111">
        <ele>62.837</ele>
        <time>2010-08-24T14:11:11Z</time>
      </trkpt>
      <trkpt lat="48.48919" lon="-4.50096">
        <ele>65.843</ele>
        <time>2010-08-24T14:11:25Z</time>
      </trkpt>
      <trkpt lat="48.48761" lon="-4.5006">
        <ele>69.522</ele>
        <time>2010-08-24T14:11:51Z</time>
      </trkpt>
      <trkpt lat="48.48755" lon="-4.50059">
        <ele>69.802</ele>
        <time>2010-08-24T14:11:52Z</time>
      </trkpt>
      <trkpt lat="48.48648" lon="-4.50023">
        <ele>72.079</ele>
        <time>2010-08-24T14:12:11Z</time>
      </trkpt>
      <trkpt lat="48.48561" lon="-4.49976">
        <ele>72.957</ele>
        <time>2010-08-24T14:12:26Z</time>
      </trkpt>
      <trkpt lat="48.48502" lon="-4.49926">
        <ele>74.923</ele>
        <time>2010-08-24T14:12:38Z</time>
      </trkpt>
      <trkpt lat="48.4842" lon="-4.49856">
        <ele>72.743</ele>
        <time>2010-08-24T14:12:55Z</time>
      </trkpt>
      <trkpt lat="48.48372" lon="-4.49814">
        <ele>70.509</ele>
        <time>2010-08-24T14:13:03Z</time>
      </trkpt>
      <trkpt lat="48.48352" lon="-4.49798">
        <ele>69.223</ele>
        <time>2010-08-24T14:13:06Z</time>
      </trkpt>
      <trkpt lat="48.48304" lon="-4.49757">
        <ele>66.202</ele>
        <time>2010-08-24T14:13:13Z</time>
      </trkpt>
      <trkpt lat="48.48247" lon="-4.49707">
        <ele>64.761</ele>
        <time>2010-08-24T14:13:21Z</time>
      </trkpt>
      <trkpt lat="48.48141" lon="-4.4959">
        <ele>63.421</ele>
        <time>2010-08-24T14:13:39Z</time>
      </trkpt>
      <trkpt lat="48.48041" lon="-4.49436">
        <ele>62.62</ele>
        <time>2010-08-24T14:14:00Z</time>
      </trkpt>
      <trkpt lat="48.47988" lon="-4.49331">
        <ele>62.825</ele>
        <time>2010-08-24T14:14:17Z</time>
      </trkpt>
      <trkpt lat="48.4797" lon="-4.49291">
        <ele>62.562</ele>
        <time>2010-08-24T14:14:27Z</time>
      </trkpt>
      <trkpt lat="48.47933" lon="-4.49195">
        <ele>63.408</ele>
        <time>2010-08-24T14:14:44Z</time>
      </trkpt>
      <trkpt lat="48.47887" lon="-4.49064">
        <ele>64.288</ele>
        <time>2010-08-24T14:15:04Z</time>
      </trkpt>
      <trkpt lat="48.47818" lon="-4.48881">
        <ele>63.636</ele>
        <time>2010-08-24T14:15:28Z</time>
      </trkpt>
      <trkpt lat="48.47758" lon="-4.48765">
        <ele>66.69</ele>
        <time>2010-08-24T14:15:45Z</time>
      </trkpt>
      <trkpt lat="48.4767" lon="-4.48618">
        <ele>68.641</ele>
        <time>2010-08-24T14:16:09Z</time>
      </trkpt>
      <trkpt lat="48.47607" lon="-4.48526">
        <ele>71.657</ele>
        <time>2010-08-24T14:16:25Z</time>
      </trkpt>
      <trkpt lat="48.47531" lon="-4.48435">
        <ele>74.778</ele>
        <time>2010-08-24T14:16:43Z</time>
      </trkpt>
      <trkpt lat="48.474" lon="-4.48302">
        <ele>77.043</ele>
        <time>2010-08-24T14:17:12Z</time>
      </trkpt>
      <trkpt lat="48.47237" lon="-4.48143">
        <ele>76.696</ele>
        <time>2010-08-24T14:17:44Z</time>
      </trkpt>
      <trkpt lat="48.47062" lon="-4.48017">
        <ele>76.115</ele>
        <time>2010-08-24T14:18:14Z</time>
      </trkpt>
      <trkpt lat="48.46925" lon="-4.47912">
        <ele>75.765</ele>
        <time>2010-08-24T14:18:37Z</time>
      </trkpt>
      <trkpt lat="48.46785" lon="-4.47762">
        <ele>75.868</ele>
        <time>2010-08-24T14:19:02Z</time>
      </trkpt>
      <trkpt lat="48.46643" lon="-4.47691">
        <ele>73.152</ele>
        <time>2010-08-24T14:19:23Z</time>
      </trkpt>
      <trkpt lat="48.46512" lon="-4.47657">
        <ele>76.455</ele>
        <time>2010-08-24T14:19:44Z</time>
      </trkpt>
      <trkpt lat="48.46501" lon="-4.47655">
        <ele>77.161</ele>
        <time>2010-08-24T14:19:46Z</time>
      </trkpt>
      <trkpt lat="48.46417" lon="-4.47633">
        <ele>80.388</ele>
        <time>2010-08-24T14:20:02Z</time>
      </trkpt>
      <trkpt lat="48.46302" lon="-4.47603">
        <ele>81.571</ele>
        <time>2010-08-24T14:20:23Z</time>
      </trkpt>
      <trkpt lat="48.46094" lon="-4.47557">
        <ele>83.978</ele>
        <time>2010-08-24T14:21:01Z</time>
      </trkpt>
      <trkpt lat="48.45946" lon="-4.47573">
        <ele>85.019</ele>
        <time>2010-08-24T14:21:27Z</time>
      </trkpt>
      <trkpt lat="48.45795" lon="-4.47577">
        <ele>87.127</ele>
        <time>2010-08-24T14:21:53Z</time>
      </trkpt>
      <trkpt lat="48.45689" lon="-4.47523">
        <ele>85.562</ele>
        <time>2010-08-24T14:22:11Z</time>
      </trkpt>
      <trkpt lat="48.45578" lon="-4.47406">
        <ele>86.224</ele>
        <time>2010-08-24T14:22:31Z</time>
      </trkpt>
      <trkpt lat="48.45553" lon="-4.47377">
        <ele>86.538</ele>
        <time>2010-08-24T14:22:36Z</time>
      </trkpt>
      <trkpt lat="48.45459" lon="-4.47293">
        <ele>85.718</ele>
        <time>2010-08-24T14:22:53Z</time>
      </trkpt>
      <trkpt lat="48.45334" lon="-4.47241">
        <ele>82.285</ele>
        <time>2010-08-24T14:23:11Z</time>
      </trkpt>
      <trkpt lat="48.45327" lon="-4.4724">
        <ele>82.068</ele>
        <time>2010-08-24T14:23:12Z</time>
      </trkpt>
      <trkpt lat="48.45137" lon="-4.47222">
        <ele>80.099</ele>
        <time>2010-08-24T14:23:38Z</time>
      </trkpt>
      <trkpt lat="48.45037" lon="-4.47221">
        <ele>80.015</ele>
        <time>2010-08-24T14:23:53Z</time>
      </trkpt>
      <trkpt lat="48.45005" lon="-4.47264">
        <ele>79.129</ele>
        <time>2010-08-24T14:24:02Z</time>
      </trkpt>
      <trkpt lat="48.45003" lon="-4.47286">
        <ele>78.882</ele>
        <time>2010-08-24T14:24:04Z</time>
      </trkpt>
      <trkpt lat="48.44977" lon="-4.47431">
        <ele>78.27</ele>
        <time>2010-08-24T14:24:19Z</time>
      </trkpt>
      <trkpt lat="48.44963" lon="-4.47498">
        <ele>75.383</ele>
        <time>2010-08-24T14:24:25Z</time>
      </trkpt>
      <trkpt lat="48.44958" lon="-4.47522">
        <ele>77.687</ele>
        <time>2010-08-24T14:24:27Z</time>
      </trkpt>
      <trkpt lat="48.44941" lon="-4.47583">
        <ele>75.338</ele>
        <time>2010-08-24T14:24:33Z</time>
      </trkpt>
      <trkpt lat="48.44935" lon="-4.47604">
        <ele>74.901</ele>
        <time>2010-08-24T14:24:36Z</time>
      </trkpt>
      <trkpt lat="48.44932" lon="-4.47616">
        <ele>74.26</ele>
        <time>2010-08-24T14:24:38Z</time>
      </trkpt>
      <trkpt lat="48.44929" lon="-4.47646">
        <ele>72.415</ele>
        <time>2010-08-24T14:24:41Z</time>
      </trkpt>
      <trkpt lat="48.44919" lon="-4.4764">
        <ele>72.842</ele>
        <time>2010-08-24T14:24:43Z</time>
      </trkpt>
      <trkpt lat="48.44902" lon="-4.47625">
        <ele>72.296</ele>
        <time>2010-08-24T14:24:46Z</time>
      </trkpt>
      <trkpt lat="48.44889" lon="-4.47626">
        <ele>71.17</ele>
        <time>2010-08-24T14:24:48Z</time>
      </trkpt>
      <trkpt lat="48.44776" lon="-4.47645">
        <ele>70.419</ele>
        <time>2010-08-24T14:25:05Z</time>
      </trkpt>
      <trkpt lat="48.44735" lon="-4.47646">
        <ele>67.948</ele>
        <time>2010-08-24T14:25:11Z</time>
      </trkpt>
      <trkpt lat="48.44705" lon="-4.47642">
        <ele>64.806</ele>
        <time>2010-08-24T14:25:15Z</time>
      </trkpt>
      <trkpt lat="48.44697" lon="-4.47641">
        <ele>64.662</ele>
        <time>2010-08-24T14:25:16Z</time>
      </trkpt>
      <trkpt lat="48.4465" lon="-4.47617">
        <ele>62.833</ele>
        <time>2010-08-24T14:25:22Z</time>
      </trkpt>
      <trkpt lat="48.44546" lon="-4.47539">
        <ele>63.332</ele>
        <time>2010-08-24T14:25:36Z</time>
      </trkpt>
      <trkpt lat="48.44519" lon="-4.47523">
        <ele>65.842</ele>
        <time>2010-08-24T14:25:41Z</time>
      </trkpt>
      <trkpt lat="48.445" lon="-4.47521">
        <ele>67.885</ele>
        <time>2010-08-24T14:25:45Z</time>
      </trkpt>
      <trkpt lat="48.44486" lon="-4.47522">
        <ele>68.655</ele>
        <time>2010-08-24T14:25:48Z</time>
      </trkpt>
      <trkpt lat="48.44437" lon="-4.4753">
        <ele>72.26</ele>
        <time>2010-08-24T14:25:58Z</time>
      </trkpt>
      <trkpt lat="48.44351" lon="-4.47571">
        <ele>71.712</ele>
        <time>2010-08-24T14:26:14Z</time>
      </trkpt>
      <trkpt lat="48.44296" lon="-4.476">
        <ele>68.355</ele>
        <time>2010-08-24T14:26:22Z</time>
      </trkpt>
      <trkpt lat="48.44258" lon="-4.4762">
        <ele>64.507</ele>
        <time>2010-08-24T14:26:27Z</time>
      </trkpt>
      <trkpt lat="48.44258" lon="-4.4762">
        <ele>64.588</ele>
        <time>2010-08-24T14:26:28Z</time>
      </trkpt>
      <trkpt lat="48.4422" lon="-4.47637">
        <ele>62.87</ele>
        <time>2010-08-24T14:26:31Z</time>
      </trkpt>
      <trkpt lat="48.44192" lon="-4.47651">
        <ele>60.574</ele>
        <time>2010-08-24T14:26:34Z</time>
      </trkpt>
      <trkpt lat="48.44107" lon="-4.47686">
        <ele>63.241</ele>
        <time>2010-08-24T14:26:44Z</time>
      </trkpt>
      <trkpt lat="48.44061" lon="-4.47689">
        <ele>65.09</ele>
        <time>2010-08-24T14:26:50Z</time>
      </trkpt>
      <trkpt lat="48.44044" lon="-4.47689">
        <ele>67.174</ele>
        <time>2010-08-24T14:26:54Z</time>
      </trkpt>
      <trkpt lat="48.44019" lon="-4.47685">
        <ele>66.858</ele>
        <time>2010-08-24T14:26:57Z</time>
      </trkpt>
      <trkpt lat="48.43886" lon="-4.47686">
        <ele>63.904</ele>
        <time>2010-08-24T14:27:17Z</time>
      </trkpt>
      <trkpt lat="48.43793" lon="-4.47738">
        <ele>60.895</ele>
        <time>2010-08-24T14:27:30Z</time>
      </trkpt>
      <trkpt lat="48.43735" lon="-4.47813">
        <ele>59.766</ele>
        <time>2010-08-24T14:27:42Z</time>
      </trkpt>
      <trkpt lat="48.4367" lon="-4.47882">
        <ele>60.873</ele>
        <time>2010-08-24T14:27:51Z</time>
      </trkpt>
      <trkpt lat="48.43594" lon="-4.47888">
        <ele>64.536</ele>
        <time>2010-08-24T14:28:02Z</time>
      </trkpt>
      <trkpt lat="48.43589" lon="-4.47889">
        <ele>64.805</ele>
        <time>2010-08-24T14:28:03Z</time>
      </trkpt>
      <trkpt lat="48.43545" lon="-4.47893">
        <ele>68.221</ele>
        <time>2010-08-24T14:28:12Z</time>
      </trkpt>
      <trkpt lat="48.4354" lon="-4.47893">
        <ele>68.427</ele>
        <time>2010-08-24T14:28:13Z</time>
      </trkpt>
      <trkpt lat="48.43512" lon="-4.47896">
        <ele>69.407</ele>
        <time>2010-08-24T14:28:19Z</time>
      </trkpt>
      <trkpt lat="48.43491" lon="-4.47898">
        <ele>71.137</ele>
        <time>2010-08-24T14:28:24Z</time>
      </trkpt>
      <trkpt lat="48.43436" lon="-4.47887">
        <ele>74.469</ele>
        <time>2010-08-24T14:28:37Z</time>
      </trkpt>
      <trkpt lat="48.4341" lon="-4.4788">
        <ele>75.417</ele>
        <time>2010-08-24T14:28:43Z</time>
      </trkpt>
      <trkpt lat="48.43338" lon="-4.4784">
        <ele>72.016</ele>
        <time>2010-08-24T14:28:57Z</time>
      </trkpt>
      <trkpt lat="48.43243" lon="-4.47771">
        <ele>72.476</ele>
        <time>2010-08-24T14:29:12Z</time>
      </trkpt>
      <trkpt lat="48.43212" lon="-4.4776">
        <ele>74.312</ele>
        <time>2010-08-24T14:29:18Z</time>
      </trkpt>
      <trkpt lat="48.43157" lon="-4.47745">
        <ele>77.44</ele>
        <time>2010-08-24T14:29:30Z</time>
      </trkpt>
      <trkpt lat="48.43106" lon="-4.47732">
        <ele>80.527</ele>
        <time>2010-08-24T14:29:41Z</time>
      </trkpt>
      <trkpt lat="48.43055" lon="-4.47719">
        <ele>83.19</ele>
        <time>2010-08-24T14:29:53Z</time>
      </trkpt>
      <trkpt lat="48.42987" lon="-4.47711">
        <ele>84.627</ele>
        <time>2010-08-24T14:30:13Z</time>
      </trkpt>
      <trkpt lat="48.4293" lon="-4.477">
        <ele>84.923</ele>
        <time>2010-08-24T14:30:32Z</time>
      </trkpt>
      <trkpt lat="48.42864" lon="-4.47684">
        <ele>84.952</ele>
        <time>2010-08-24T14:30:54Z</time>
      </trkpt>
      <trkpt lat="48.4277" lon="-4.47666">
        <ele>84.181</ele>
        <time>2010-08-24T14:31:12Z</time>
      </trkpt>
      <trkpt lat="48.42752" lon="-4.47663">
        <ele>83.836</ele>
        <time>2010-08-24T14:31:16Z</time>
      </trkpt>
      <trkpt lat="48.42714" lon="-4.47655">
        <ele>85.154</ele>
        <time>2010-08-24T14:31:26Z</time>
      </trkpt>
      <trkpt lat="48.42697" lon="-4.47651">
        <ele>84.435</ele>
        <time>2010-08-24T14:31:33Z</time>
      </trkpt>
      <trkpt lat="48.42699" lon="-4.4763">
        <ele>84.236</ele>
        <time>2010-08-24T14:31:40Z</time>
      </trkpt>
      <trkpt lat="48.42739" lon="-4.47513">
        <ele>83.631</ele>
        <time>2010-08-24T14:31:58Z</time>
      </trkpt>
      <trkpt lat="48.42754" lon="-4.47396">
        <ele>82.317</ele>
        <time>2010-08-24T14:32:12Z</time>
      </trkpt>
      <trkpt lat="48.42733" lon="-4.47356">
        <ele>81.563</ele>
        <time>2010-08-24T14:32:17Z</time>
      </trkpt>
      <trkpt lat="48.42633" lon="-4.47322">
        <ele>81.928</ele>
        <time>2010-08-24T14:32:33Z</time>
      </trkpt>
      <trkpt lat="48.42597" lon="-4.47293">
        <ele>82.222</ele>
        <time>2010-08-24T14:32:40Z</time>
      </trkpt>
      <trkpt lat="48.42589" lon="-4.47285">
        <ele>82.259</ele>
        <time>2010-08-24T14:32:44Z</time>
      </trkpt>
      <trkpt lat="48.42561" lon="-4.47275">
        <ele>81.678</ele>
        <time>2010-08-24T14:32:48Z</time>
      </trkpt>
      <trkpt lat="48.42535" lon="-4.47275">
        <ele>80.703</ele>
        <time>2010-08-24T14:32:53Z</time>
      </trkpt>
      <trkpt lat="48.42456" lon="-4.4731">
        <ele>79.149</ele>
        <time>2010-08-24T14:33:06Z</time>
      </trkpt>
      <trkpt lat="48.42425" lon="-4.47343">
        <ele>78.544</ele>
        <time>2010-08-24T14:33:12Z</time>
      </trkpt>
      <trkpt lat="48.42332" lon="-4.47529">
        <ele>79.965</ele>
        <time>2010-08-24T14:33:36Z</time>
      </trkpt>
      <trkpt lat="48.42312" lon="-4.47564">
        <ele>78.225</ele>
        <time>2010-08-24T14:33:41Z</time>
      </trkpt>
      <trkpt lat="48.42308" lon="-4.47572">
        <ele>78.206</ele>
        <time>2010-08-24T14:33:42Z</time>
      </trkpt>
      <trkpt lat="48.42301" lon="-4.47607">
        <ele>79.719</ele>
        <time>2010-08-24T14:33:46Z</time>
      </trkpt>
      <trkpt lat="48.42277" lon="-4.4762">
        <ele>80.387</ele>
        <time>2010-08-24T14:33:51Z</time>
      </trkpt>
      <trkpt lat="48.42246" lon="-4.47641">
        <ele>75.405</ele>
        <time>2010-08-24T14:33:58Z</time>
      </trkpt>
      <trkpt lat="48.42195" lon="-4.47671">
        <ele>74.029</ele>
        <time>2010-08-24T14:34:03Z</time>
      </trkpt>
      <trkpt lat="48.42156" lon="-4.47691">
        <ele>71.521</ele>
        <time>2010-08-24T14:34:08Z</time>
      </trkpt>
      <trkpt lat="48.42067" lon="-4.47713">
        <ele>72.367</ele>
        <time>2010-08-24T14:34:20Z</time>
      </trkpt>
      <trkpt lat="48.41969" lon="-4.47688">
        <ele>75.543</ele>
        <time>2010-08-24T14:34:35Z</time>
      </trkpt>
      <trkpt lat="48.41898" lon="-4.47679">
        <ele>78.038</ele>
        <time>2010-08-24T14:34:46Z</time>
      </trkpt>
      <trkpt lat="48.41833" lon="-4.47671">
        <ele>81.297</ele>
        <time>2010-08-24T14:34:57Z</time>
      </trkpt>
      <trkpt lat="48.41742" lon="-4.47644">
        <ele>83.646</ele>
        <time>2010-08-24T14:35:15Z</time>
      </trkpt>
      <trkpt lat="48.41738" lon="-4.47642">
        <ele>83.595</ele>
        <time>2010-08-24T14:35:16Z</time>
      </trkpt>
      <trkpt lat="48.41652" lon="-4.47593">
        <ele>82.896</ele>
        <time>2010-08-24T14:35:36Z</time>
      </trkpt>
      <trkpt lat="48.41621" lon="-4.47577">
        <ele>79.812</ele>
        <time>2010-08-24T14:35:42Z</time>
      </trkpt>
      <trkpt lat="48.41579" lon="-4.47554">
        <ele>77.403</ele>
        <time>2010-08-24T14:35:54Z</time>
      </trkpt>
      <trkpt lat="48.41568" lon="-4.47548">
        <ele>75.991</ele>
        <time>2010-08-24T14:35:58Z</time>
      </trkpt>
      <trkpt lat="48.41554" lon="-4.4754">
        <ele>74.495</ele>
        <time>2010-08-24T14:36:01Z</time>
      </trkpt>
      <trkpt lat="48.41486" lon="-4.47519">
        <ele>70.943</ele>
        <time>2010-08-24T14:36:11Z</time>
      </trkpt>
      <trkpt lat="48.41471" lon="-4.47513">
        <ele>68.781</ele>
        <time>2010-08-24T14:36:13Z</time>
      </trkpt>
      <trkpt lat="48.41422" lon="-4.47515">
        <ele>67.921</ele>
        <time>2010-08-24T14:36:20Z</time>
      </trkpt>
      <trkpt lat="48.41409" lon="-4.47516">
        <ele>66.232</ele>
        <time>2010-08-24T14:36:22Z</time>
      </trkpt>
      <trkpt lat="48.41391" lon="-4.4752">
        <ele>65.64</ele>
        <time>2010-08-24T14:36:25Z</time>
      </trkpt>
      <trkpt lat="48.41334" lon="-4.47544">
        <ele>63.8</ele>
        <time>2010-08-24T14:36:35Z</time>
      </trkpt>
      <trkpt lat="48.41271" lon="-4.4757">
        <ele>61.626</ele>
        <time>2010-08-24T14:36:46Z</time>
      </trkpt>
      <trkpt lat="48.41263" lon="-4.47573">
        <ele>62.035</ele>
        <time>2010-08-24T14:36:49Z</time>
      </trkpt>
      <trkpt lat="48.41233" lon="-4.47588">
        <ele>61.711</ele>
        <time>2010-08-24T14:36:54Z</time>
      </trkpt>
      <trkpt lat="48.41136" lon="-4.47614">
        <ele>61.874</ele>
        <time>2010-08-24T14:37:12Z</time>
      </trkpt>
      <trkpt lat="48.41018" lon="-4.47625">
        <ele>60.965</ele>
        <time>2010-08-24T14:37:31Z</time>
      </trkpt>
      <trkpt lat="48.40908" lon="-4.47607">
        <ele>57.833</ele>
        <time>2010-08-24T14:37:49Z</time>
      </trkpt>
      <trkpt lat="48.40902" lon="-4.47605">
        <ele>57.549</ele>
        <time>2010-08-24T14:37:50Z</time>
      </trkpt>
      <trkpt lat="48.40803" lon="-4.47554">
        <ele>54.199</ele>
        <time>2010-08-24T14:38:06Z</time>
      </trkpt>
      <trkpt lat="48.40789" lon="-4.47547">
        <ele>53.292</ele>
        <time>2010-08-24T14:38:08Z</time>
      </trkpt>
      <trkpt lat="48.4075" lon="-4.47538">
        <ele>50.29</ele>
        <time>2010-08-24T14:38:13Z</time>
      </trkpt>
      <trkpt lat="48.40689" lon="-4.47542">
        <ele>53.798</ele>
        <time>2010-08-24T14:38:22Z</time>
      </trkpt>
      <trkpt lat="48.40677" lon="-4.47571">
        <ele>53.447</ele>
        <time>2010-08-24T14:38:26Z</time>
      </trkpt>
      <trkpt lat="48.40658" lon="-4.476">
        <ele>55.595</ele>
        <time>2010-08-24T14:38:31Z</time>
      </trkpt>
      <trkpt lat="48.40651" lon="-4.4761">
        <ele>55.484</ele>
        <time>2010-08-24T14:38:33Z</time>
      </trkpt>
      <trkpt lat="48.40623" lon="-4.4765">
        <ele>58.386</ele>
        <time>2010-08-24T14:38:42Z</time>
      </trkpt>
      <trkpt lat="48.40623" lon="-4.4765">
        <ele>58.441</ele>
        <time>2010-08-24T14:38:44Z</time>
      </trkpt>
      <trkpt lat="48.40603" lon="-4.47681">
        <ele>58.149</ele>
        <time>2010-08-24T14:38:47Z</time>
      </trkpt>
      <trkpt lat="48.40531" lon="-4.47793">
        <ele>57.127</ele>
        <time>2010-08-24T14:39:06Z</time>
      </trkpt>
      <trkpt lat="48.40518" lon="-4.47812">
        <ele>56.383</ele>
        <time>2010-08-24T14:39:09Z</time>
      </trkpt>
      <trkpt lat="48.40453" lon="-4.47905">
        <ele>58.043</ele>
        <time>2010-08-24T14:39:27Z</time>
      </trkpt>
      <trkpt lat="48.40376" lon="-4.48015">
        <ele>58.405</ele>
        <time>2010-08-24T14:39:47Z</time>
      </trkpt>
      <trkpt lat="48.40365" lon="-4.48033">
        <ele>59.642</ele>
        <time>2010-08-24T14:39:57Z</time>
      </trkpt>
      <trkpt lat="48.40348" lon="-4.48059">
        <ele>58.074</ele>
        <time>2010-08-24T14:40:18Z</time>
      </trkpt>
      <trkpt lat="48.40296" lon="-4.48136">
        <ele>57.769</ele>
        <time>2010-08-24T14:40:32Z</time>
      </trkpt>
      <trkpt lat="48.40191" lon="-4.48286">
        <ele>55.458</ele>
        <time>2010-08-24T14:40:58Z</time>
      </trkpt>
      <trkpt lat="48.40164" lon="-4.48324">
        <ele>55.219</ele>
        <time>2010-08-24T14:41:10Z</time>
      </trkpt>
      <trkpt lat="48.40164" lon="-4.48324">
        <ele>55.927</ele>
        <time>2010-08-24T14:41:23Z</time>
      </trkpt>
      <trkpt lat="48.40142" lon="-4.48364">
        <ele>53.845</ele>
        <time>2010-08-24T14:42:00Z</time>
      </trkpt>
      <trkpt lat="48.40121" lon="-4.48402">
        <ele>51.612</ele>
        <time>2010-08-24T14:42:10Z</time>
      </trkpt>
      <trkpt lat="48.40117" lon="-4.4841">
        <ele>50.517</ele>
        <time>2010-08-24T14:42:15Z</time>
      </trkpt>
      <trkpt lat="48.40069" lon="-4.48472">
        <ele>48.159</ele>
        <time>2010-08-24T14:42:26Z</time>
      </trkpt>
      <trkpt lat="48.40054" lon="-4.48494">
        <ele>46.734</ele>
        <time>2010-08-24T14:42:35Z</time>
      </trkpt>
      <trkpt lat="48.40002" lon="-4.48568">
        <ele>47.894</ele>
        <time>2010-08-24T14:42:49Z</time>
      </trkpt>
      <trkpt lat="48.39982" lon="-4.48597">
        <ele>48.729</ele>
        <time>2010-08-24T14:43:01Z</time>
      </trkpt>
      <trkpt lat="48.39979" lon="-4.48601">
        <ele>48.635</ele>
        <time>2010-08-24T14:43:16Z</time>
      </trkpt>
      <trkpt lat="48.39979" lon="-4.48601">
        <ele>48.488</ele>
        <time>2010-08-24T14:43:18Z</time>
      </trkpt>
      <trkpt lat="48.39956" lon="-4.48637">
        <ele>47.346</ele>
        <time>2010-08-24T14:43:27Z</time>
      </trkpt>
      <trkpt lat="48.39904" lon="-4.48719">
        <ele>49.608</ele>
        <time>2010-08-24T14:43:40Z</time>
      </trkpt>
      <trkpt lat="48.39894" lon="-4.48736">
        <ele>50.686</ele>
        <time>2010-08-24T14:43:44Z</time>
      </trkpt>
      <trkpt lat="48.39826" lon="-4.48845">
        <ele>53.08</ele>
        <time>2010-08-24T14:44:03Z</time>
      </trkpt>
      <trkpt lat="48.39814" lon="-4.48863">
        <ele>53.684</ele>
        <time>2010-08-24T14:44:15Z</time>
      </trkpt>
      <trkpt lat="48.39803" lon="-4.4888">
        <ele>52.842</ele>
        <time>2010-08-24T14:45:34Z</time>
      </trkpt>
      <trkpt lat="48.39791" lon="-4.48934">
        <ele>52.714</ele>
        <time>2010-08-24T14:45:41Z</time>
      </trkpt>
      <trkpt lat="48.39767" lon="-4.48947">
        <ele>54.002</ele>
        <time>2010-08-24T14:45:48Z</time>
      </trkpt>
      <trkpt lat="48.39755" lon="-4.48932">
        <ele>54.052</ele>
        <time>2010-08-24T14:45:51Z</time>
      </trkpt>
      <trkpt lat="48.39752" lon="-4.4892">
        <ele>54.559</ele>
        <time>2010-08-24T14:45:54Z</time>
      </trkpt>
      <trkpt lat="48.39721" lon="-4.48898">
        <ele>55.095</ele>
        <time>2010-08-24T14:45:59Z</time>
      </trkpt>
      <trkpt lat="48.39711" lon="-4.48895">
        <ele>56.126</ele>
        <time>2010-08-24T14:46:01Z</time>
      </trkpt>
      <trkpt lat="48.39651" lon="-4.48877">
        <ele>59.37</ele>
        <time>2010-08-24T14:46:12Z</time>
      </trkpt>
      <trkpt lat="48.3958" lon="-4.48858">
        <ele>61.597</ele>
        <time>2010-08-24T14:46:26Z</time>
      </trkpt>
      <trkpt lat="48.39496" lon="-4.48835">
        <ele>60.116</ele>
        <time>2010-08-24T14:46:45Z</time>
      </trkpt>
      <trkpt lat="48.39397" lon="-4.48806">
        <ele>57.034</ele>
        <time>2010-08-24T14:47:02Z</time>
      </trkpt>
      <trkpt lat="48.39323" lon="-4.48785">
        <ele>55.017</ele>
        <time>2010-08-24T14:47:16Z</time>
      </trkpt>
      <trkpt lat="48.39282" lon="-4.48773">
        <ele>51.711</ele>
        <time>2010-08-24T14:47:23Z</time>
      </trkpt>
      <trkpt lat="48.39276" lon="-4.48771">
        <ele>51.769</ele>
        <time>2010-08-24T14:47:24Z</time>
      </trkpt>
      <trkpt lat="48.39219" lon="-4.48755">
        <ele>50.026</ele>
        <time>2010-08-24T14:47:34Z</time>
      </trkpt>
      <trkpt lat="48.39212" lon="-4.48753">
        <ele>48.841</ele>
        <time>2010-08-24T14:47:36Z</time>
      </trkpt>
      <trkpt lat="48.3919" lon="-4.48781">
        <ele>48.996</ele>
        <time>2010-08-24T14:47:40Z</time>
      </trkpt>
      <trkpt lat="48.39167" lon="-4.48808">
        <ele>48.925</ele>
        <time>2010-08-24T14:47:45Z</time>
      </trkpt>
      <trkpt lat="48.39152" lon="-4.48856">
        <ele>48.127</ele>
        <time>2010-08-24T14:47:52Z</time>
      </trkpt>
      <trkpt lat="48.39204" lon="-4.48957">
        <ele>46.329</ele>
        <time>2010-08-24T14:48:07Z</time>
      </trkpt>
      <trkpt lat="48.39232" lon="-4.49012">
        <ele>43.587</ele>
        <time>2010-08-24T14:48:16Z</time>
      </trkpt>
      <trkpt lat="48.39258" lon="-4.49064">
        <ele>41.338</ele>
        <time>2010-08-24T14:48:23Z</time>
      </trkpt>
      <trkpt lat="48.3929" lon="-4.49121">
        <ele>38.775</ele>
        <time>2010-08-24T14:48:31Z</time>
      </trkpt>
      <trkpt lat="48.39316" lon="-4.49165">
        <ele>35.266</ele>
        <time>2010-08-24T14:48:37Z</time>
      </trkpt>
      <trkpt lat="48.39337" lon="-4.49201">
        <ele>34.194</ele>
        <time>2010-08-24T14:48:42Z</time>
      </trkpt>
      <trkpt lat="48.39347" lon="-4.49219">
        <ele>34.481</ele>
        <time>2010-08-24T14:48:52Z</time>
      </trkpt>
      <trkpt lat="48.3935" lon="-4.49224">
        <ele>34.23</ele>
        <time>2010-08-24T14:49:06Z</time>
      </trkpt>
      <trkpt lat="48.39375" lon="-4.49274">
        <ele>32.473</ele>
        <time>2010-08-24T14:49:16Z</time>
      </trkpt>
      <trkpt lat="48.39406" lon="-4.49342">
        <ele>31.771</ele>
        <time>2010-08-24T14:49:27Z</time>
      </trkpt>
      <trkpt lat="48.39413" lon="-4.49358">
        <ele>33.338</ele>
        <time>2010-08-24T14:49:38Z</time>
      </trkpt>
      <trkpt lat="48.39413" lon="-4.49358">
        <ele>33.606</ele>
        <time>2010-08-24T14:50:06Z</time>
      </trkpt>
      <trkpt lat="48.39413" lon="-4.49358">
        <ele>33.633</ele>
        <time>2010-08-24T14:51:51Z</time>
      </trkpt>
      <trkpt lat="48.39413" lon="-4.49358">
        <ele>34.067</ele>
        <time>2010-08-24T14:51:59Z</time>
      </trkpt>
      <trkpt lat="48.39397" lon="-4.49415">
        <ele>34.568</ele>
        <time>2010-08-24T14:52:12Z</time>
      </trkpt>
      <trkpt lat="48.39389" lon="-4.49461">
        <ele>34.835</ele>
        <time>2010-08-24T14:52:20Z</time>
      </trkpt>
      <trkpt lat="48.39361" lon="-4.49592">
        <ele>37.409</ele>
        <time>2010-08-24T14:52:39Z</time>
      </trkpt>
      <trkpt lat="48.39334" lon="-4.49724">
        <ele>40.563</ele>
        <time>2010-08-24T14:53:00Z</time>
      </trkpt>
      <trkpt lat="48.39297" lon="-4.49899">
        <ele>43.221</ele>
        <time>2010-08-24T14:53:31Z</time>
      </trkpt>
      <trkpt lat="48.3927" lon="-4.50029">
        <ele>45.037</ele>
        <time>2010-08-24T14:53:56Z</time>
      </trkpt>
      <trkpt lat="48.39238" lon="-4.50185">
        <ele>43.562</ele>
        <time>2010-08-24T14:54:19Z</time>
      </trkpt>
      <trkpt lat="48.39208" lon="-4.50335">
        <ele>40.792</ele>
        <time>2010-08-24T14:54:38Z</time>
      </trkpt>
      <trkpt lat="48.39203" lon="-4.50362">
        <ele>42.224</ele>
        <time>2010-08-24T14:54:42Z</time>
      </trkpt>
      <trkpt lat="48.39203" lon="-4.50362">
        <ele>43.108</ele>
        <time>2010-08-24T14:54:44Z</time>
      </trkpt>
      <trkpt lat="48.39203" lon="-4.50362">
        <ele>44.071</ele>
        <time>2010-08-24T14:54:45Z</time>
      </trkpt>
      <trkpt lat="48.39181" lon="-4.50428">
        <ele>44.475</ele>
        <time>2010-08-24T14:54:52Z</time>
      </trkpt>
      <trkpt lat="48.39189" lon="-4.50409">
        <ele>44.117</ele>
        <time>2010-08-24T14:54:53Z</time>
      </trkpt>
      <trkpt lat="48.39191" lon="-4.50399">
        <ele>43.522</ele>
        <time>2010-08-24T14:54:55Z</time>
      </trkpt>
      <trkpt lat="48.39006" lon="-4.50423">
        <ele>41.136</ele>
        <time>2010-08-24T14:55:27Z</time>
      </trkpt>
      <trkpt lat="48.39013" lon="-4.50481">
        <ele>44.59</ele>
        <time>2010-08-24T14:55:36Z</time>
      </trkpt>
      <trkpt lat="48.39019" lon="-4.50509">
        <ele>45.069</ele>
        <time>2010-08-24T14:55:46Z</time>
      </trkpt>
      <trkpt lat="48.39002" lon="-4.50491">
        <ele>44.456</ele>
        <time>2010-08-24T14:55:52Z</time>
      </trkpt>
      <trkpt lat="48.38984" lon="-4.50489">
        <ele>43.732</ele>
        <time>2010-08-24T14:55:56Z</time>
      </trkpt>
      <trkpt lat="48.38966" lon="-4.50486">
        <ele>42.379</ele>
        <time>2010-08-24T14:55:59Z</time>
      </trkpt>
      <trkpt lat="48.38847" lon="-4.50461">
        <ele>42.453</ele>
        <time>2010-08-24T14:56:18Z</time>
      </trkpt>
      <trkpt lat="48.38797" lon="-4.50452">
        <ele>45.775</ele>
        <time>2010-08-24T14:56:26Z</time>
      </trkpt>
      <trkpt lat="48.38792" lon="-4.50451">
        <ele>45.936</ele>
        <time>2010-08-24T14:56:27Z</time>
      </trkpt>
      <trkpt lat="48.38709" lon="-4.50438">
        <ele>46.432</ele>
        <time>2010-08-24T14:56:42Z</time>
      </trkpt>
      <trkpt lat="48.38685" lon="-4.50434">
        <ele>44.518</ele>
        <time>2010-08-24T14:56:46Z</time>
      </trkpt>
      <trkpt lat="48.38625" lon="-4.50424">
        <ele>45.568</ele>
        <time>2010-08-24T14:56:56Z</time>
      </trkpt>
      <trkpt lat="48.38607" lon="-4.50444">
        <ele>46.007</ele>
        <time>2010-08-24T14:57:01Z</time>
      </trkpt>
      <trkpt lat="48.38603" lon="-4.50457">
        <ele>45.742</ele>
        <time>2010-08-24T14:57:03Z</time>
      </trkpt>
      <trkpt lat="48.38594" lon="-4.50483">
        <ele>45.128</ele>
        <time>2010-08-24T14:57:07Z</time>
      </trkpt>
      <trkpt lat="48.38583" lon="-4.50513">
        <ele>45.279</ele>
        <time>2010-08-24T14:57:11Z</time>
      </trkpt>
      <trkpt lat="48.38579" lon="-4.50526">
        <ele>44.272</ele>
        <time>2010-08-24T14:57:13Z</time>
      </trkpt>
      <trkpt lat="48.38552" lon="-4.50605">
        <ele>44.507</ele>
        <time>2010-08-24T14:57:24Z</time>
      </trkpt>
      <trkpt lat="48.38538" lon="-4.50629">
        <ele>45.166</ele>
        <time>2010-08-24T14:57:31Z</time>
      </trkpt>
      <trkpt lat="48.38534" lon="-4.50625">
        <ele>44.363</ele>
        <time>2010-08-24T14:57:32Z</time>
      </trkpt>
      <trkpt lat="48.38525" lon="-4.50616">
        <ele>42.877</ele>
        <time>2010-08-24T14:57:34Z</time>
      </trkpt>
      <trkpt lat="48.38513" lon="-4.50605">
        <ele>41.2</ele>
        <time>2010-08-24T14:57:36Z</time>
      </trkpt>
      <trkpt lat="48.38493" lon="-4.50585">
        <ele>37.943</ele>
        <time>2010-08-24T14:57:39Z</time>
      </trkpt>
      <trkpt lat="48.38463" lon="-4.50556">
        <ele>34.875</ele>
        <time>2010-08-24T14:57:43Z</time>
      </trkpt>
      <trkpt lat="48.38436" lon="-4.5053">
        <ele>33.127</ele>
        <time>2010-08-24T14:57:47Z</time>
      </trkpt>
      <trkpt lat="48.38411" lon="-4.50534">
        <ele>32.245</ele>
        <time>2010-08-24T14:57:51Z</time>
      </trkpt>
      <trkpt lat="48.38401" lon="-4.50543">
        <ele>32.899</ele>
        <time>2010-08-24T14:57:53Z</time>
      </trkpt>
      <trkpt lat="48.3839" lon="-4.50545">
        <ele>34.398</ele>
        <time>2010-08-24T14:57:56Z</time>
      </trkpt>
      <trkpt lat="48.38387" lon="-4.50545">
        <ele>34.647</ele>
        <time>2010-08-24T14:58:05Z</time>
      </trkpt>
      <trkpt lat="48.38379" lon="-4.50542">
        <ele>35.098</ele>
        <time>2010-08-24T14:58:51Z</time>
      </trkpt>
      <trkpt lat="48.38379" lon="-4.50542">
        <ele>34.909</ele>
        <time>2010-08-24T14:58:54Z</time>
      </trkpt>
      <trkpt lat="48.38353" lon="-4.50515">
        <ele>35.427</ele>
        <time>2010-08-24T14:58:58Z</time>
      </trkpt>
      <trkpt lat="48.38342" lon="-4.50495">
        <ele>36.409</ele>
        <time>2010-08-24T14:59:02Z</time>
      </trkpt>
      <trkpt lat="48.38329" lon="-4.50456">
        <ele>37.757</ele>
        <time>2010-08-24T14:59:08Z</time>
      </trkpt>
      <trkpt lat="48.38309" lon="-4.50453">
        <ele>39.354</ele>
        <time>2010-08-24T14:59:13Z</time>
      </trkpt>
      <trkpt lat="48.38291" lon="-4.5045">
        <ele>39.529</ele>
        <time>2010-08-24T14:59:17Z</time>
      </trkpt>
      <trkpt lat="48.38251" lon="-4.50425">
        <ele>40.725</ele>
        <time>2010-08-24T14:59:27Z</time>
      </trkpt>
      <trkpt lat="48.38244" lon="-4.50435">
        <ele>40.516</ele>
        <time>2010-08-24T14:59:32Z</time>
      </trkpt>
      <trkpt lat="48.38258" lon="-4.50534">
        <ele>41.537</ele>
        <time>2010-08-24T14:59:51Z</time>
      </trkpt>
      <trkpt lat="48.38268" lon="-4.50615">
        <ele>44.653</ele>
        <time>2010-08-24T15:00:09Z</time>
      </trkpt>
      <trkpt lat="48.38269" lon="-4.50622">
        <ele>44.873</ele>
        <time>2010-08-24T15:00:11Z</time>
      </trkpt>
      <trkpt lat="48.3827" lon="-4.50628">
        <ele>45.773</ele>
        <time>2010-08-24T15:00:25Z</time>
      </trkpt>
      <trkpt lat="48.3827" lon="-4.50628">
        <ele>45.955</ele>
        <time>2010-08-24T15:00:27Z</time>
      </trkpt>
    </trkseg>
  </trk>
</gpx>